Data for 06/06/2009

Time Sea-Level Adjusted Pressure Absolute Pressure Temperature Relative Humidity Dew Point Precipitation   
(mb) (inHg) (mb) (inHg) (C) (F) (%) (C) (F) (mm) (in)
00:01 1012 29.88 841 24.83 6.4 43.5 92 5.3 41.5 6.696 0.264
00:02 1012 29.88 841 24.83 6.4 43.5 92 5.3 41.5 6.679 0.263
00:03 1012 29.88 841 24.83 6.4 43.5 93 5.3 41.5 6.713 0.264
00:04 1012 29.88 841 24.83 6.4 43.5 92 5.2 41.4 6.691 0.263
00:05 1012 29.88 841 24.83 6.4 43.6 92 5.3 41.5 6.708 0.264
00:06 1012 29.88 841 24.83 6.4 43.5 92 5.2 41.4 6.679 0.263
00:07 1012 29.88 841 24.83 6.4 43.5 92 5.2 41.3 6.623 0.261
00:08 1012 29.88 841 24.83 6.4 43.5 92 5.1 41.2 6.68 0.263
00:09 1012 29.88 841 24.83 6.4 43.6 91 5.1 41.2 6.668 0.263
00:10 1012 29.88 841 24.83 6.4 43.5 91 5.1 41.2 6.623 0.261
00:11 1012 29.88 841 24.83 6.4 43.5 91 5 41.1 6.601 0.26
00:12 1012 29.88 841 24.83 6.4 43.5 91 5 41 6.601 0.26
00:13 1012 29.88 841 24.83 6.4 43.5 91 5 41.1 6.629 0.261
00:14 1012 29.88 841 24.83 6.4 43.6 91 5 41.1 6.618 0.261
00:15 1012 29.88 841 24.83 6.4 43.5 91 5.1 41.1 6.635 0.261
00:16 1012 29.88 841 24.83 6.4 43.5 91 5 41.1 6.669 0.263
00:17 1012 29.88 841 24.83 6.4 43.5 91 5 41 6.646 0.262
00:18 1012 29.88 841 24.83 6.4 43.5 91 5 41 6.629 0.261
00:19 1012 29.88 841 24.83 6.4 43.6 91 5 41 6.646 0.262
00:20 1012 29.88 841 24.83 6.5 43.7 91 5.1 41.1 6.691 0.263
00:21 1012 29.88 841 24.83 6.5 43.7 90 5 41 6.748 0.266
00:22 1012 29.88 841 24.83 6.5 43.7 89 4.9 40.8 6.748 0.266
00:23 1012 29.88 841 24.83 6.6 43.8 89 4.9 40.9 6.782 0.267
00:24 1012 29.88 841 24.83 6.6 43.9 89 4.9 40.8 6.804 0.268
00:25 1012 29.88 841 24.83 6.6 43.9 89 5 41 6.776 0.267
00:26 1012 29.88 841 24.83 6.6 43.9 89 5 40.9 6.771 0.267
00:27 1012 29.88 841 24.83 6.6 43.9 89 5 41 6.754 0.266
00:28 1012 29.88 841 24.83 6.6 43.9 89 5 41 6.754 0.266
00:29 1012 29.88 841 24.83 6.6 43.9 89 4.9 40.8 6.708 0.264
00:30 1012 29.88 841 24.83 6.6 43.9 89 4.9 40.8 6.759 0.266
00:31 1012 29.88 841 24.83 6.6 44 89 4.9 40.9 6.714 0.264
00:32 1012 29.88 841 24.83 6.6 43.9 89 4.8 40.7 6.72 0.265
00:33 1012 29.88 841 24.83 6.6 43.9 89 4.9 40.8 6.714 0.264
00:34 1012 29.88 841 24.83 6.6 43.8 88 4.8 40.6 6.714 0.264
00:35 1012 29.88 841 24.83 6.6 43.9 88 4.8 40.7 6.674 0.263
00:36 1012 29.88 841 24.83 6.5 43.8 88 4.8 40.6 6.663 0.262
00:37 1012 29.88 841 24.83 6.6 43.8 87 4.6 40.3 6.652 0.262
00:38 1012 29.88 841 24.83 6.6 43.9 87 4.6 40.2 6.646 0.262
00:39 1012 29.88 841 24.83 6.6 43.8 87 4.5 40.1 6.691 0.263
00:40 1012 29.88 841 24.83 6.6 43.8 87 4.6 40.3 6.652 0.262
00:41 1012 29.88 841 24.83 6.5 43.7 87 4.5 40 6.641 0.261
00:42 1012 29.88 841 24.83 6.6 43.8 86 4.5 40 6.635 0.261
00:43 1012 29.88 841 24.83 6.6 43.8 87 4.6 40.2 6.641 0.261
00:44 1012 29.88 841 24.83 6.5 43.7 87 4.5 40.1 6.629 0.261
00:45 1012 29.88 841 24.83 6.5 43.7 87 4.5 40.1 6.618 0.261
00:46 1012 29.88 841 24.83 6.5 43.7 87 4.5 40.1 6.567 0.259
00:47 1012 29.88 841 24.83 6.5 43.7 88 4.6 40.2 6.641 0.261
00:48 1012 29.88 841 24.83 6.4 43.6 88 4.6 40.3 6.584 0.259
00:49 1012 29.88 841 24.83 6.4 43.6 88 4.5 40.1 6.567 0.259
00:50 1012 29.88 841 24.83 6.4 43.6 88 4.6 40.2 6.59 0.259
00:51 1012 29.88 841 24.83 6.4 43.5 88 4.6 40.3 6.522 0.257
00:52 1012 29.88 841 24.83 6.4 43.5 88 4.5 40.2 6.561 0.258
00:53 1011 29.85 841 24.83 6.4 43.5 88 4.5 40.2 6.55 0.258
00:54 1011 29.85 841 24.83 6.4 43.5 88 4.6 40.2 6.55 0.258
00:55 1011 29.85 841 24.83 6.4 43.5 87 4.4 40 6.556 0.258
00:56 1011 29.85 841 24.83 6.4 43.5 87 4.4 39.9 6.607 0.26
00:57 1011 29.85 841 24.83 6.5 43.6 87 4.5 40.1 6.607 0.26
00:58 1011 29.85 841 24.83 6.4 43.6 87 4.4 40 6.601 0.26
00:59 1011 29.85 841 24.83 6.4 43.6 87 4.5 40.1 6.595 0.26
01:00 1011 29.85 841 24.83 6.4 43.6 88 4.5 40.2 6.618 0.261
01:01 1011 29.85 841 24.83 6.4 43.5 88 4.5 40.1 6.618 0.261
01:02 1011 29.85 841 24.83 6.4 43.5 87 4.5 40 6.595 0.26
01:03 1011 29.85 841 24.83 6.4 43.5 88 4.5 40.1 6.646 0.262
01:04 1011 29.85 841 24.83 6.4 43.5 88 4.6 40.3 6.641 0.261
01:05 1011 29.85 841 24.83 6.3 43.4 88 4.5 40.1 6.652 0.262
01:06 1011 29.85 841 24.83 6.3 43.4 88 4.5 40.2 6.652 0.262
01:07 1011 29.85 841 24.83 6.4 43.4 89 4.6 40.3 6.607 0.26
01:08 1011 29.85 840 24.81 6.3 43.4 88 4.6 40.2 6.607 0.26
01:09 1011 29.85 840 24.81 6.3 43.4 88 4.5 40.2 6.652 0.262
01:10 1011 29.85 841 24.83 6.4 43.4 88 4.6 40.3 6.635 0.261
01:11 1011 29.85 840 24.81 6.4 43.4 88 4.6 40.2 6.635 0.261
01:12 1011 29.85 841 24.83 6.4 43.4 88 4.6 40.3 6.663 0.262
01:13 1011 29.85 841 24.83 6.4 43.5 88 4.6 40.2 6.641 0.261
01:14 1011 29.85 841 24.83 6.3 43.4 89 4.7 40.4 6.646 0.262
01:15 1011 29.85 841 24.83 6.3 43.4 89 4.6 40.3 6.612 0.26
01:16 1012 29.88 841 24.83 6.3 43.4 89 4.6 40.3 6.624 0.261
01:17 1012 29.88 841 24.83 6.4 43.5 89 4.6 40.3 6.618 0.261
01:18 1012 29.88 841 24.83 6.4 43.5 89 4.7 40.4 6.641 0.261
01:19 1012 29.88 841 24.83 6.3 43.4 89 4.7 40.5 6.663 0.262
01:20 1012 29.88 841 24.83 6.3 43.4 89 4.7 40.4 6.612 0.26
01:21 1012 29.88 841 24.83 6.3 43.4 89 4.7 40.4 6.635 0.261
01:22 1012 29.88 841 24.83 6.4 43.4 89 4.7 40.4 6.675 0.263
01:23 1012 29.88 841 24.83 6.4 43.5 89 4.7 40.5 6.658 0.262
01:24 1012 29.88 841 24.83 6.3 43.4 90 4.8 40.6 6.68 0.263
01:25 1012 29.88 841 24.83 6.3 43.4 90 4.7 40.5 6.669 0.263
01:26 1012 29.88 841 24.83 6.3 43.4 89 4.7 40.5 6.646 0.262
01:27 1012 29.88 841 24.83 6.3 43.4 89 4.7 40.5 6.624 0.261
01:28 1012 29.88 841 24.83 6.4 43.5 89 4.7 40.5 6.686 0.263
01:29 1012 29.88 841 24.83 6.4 43.5 89 4.7 40.5 6.641 0.261
01:30 1012 29.88 841 24.83 6.4 43.4 89 4.7 40.4 6.68 0.263
01:31 1011 29.85 841 24.83 6.4 43.5 89 4.7 40.5 6.68 0.263
01:32 1011 29.85 841 24.83 6.4 43.5 89 4.7 40.4 6.663 0.262
01:33 1011 29.85 841 24.83 6.4 43.5 89 4.7 40.5 6.68 0.263
01:34 1011 29.85 841 24.83 6.4 43.5 89 4.7 40.4 6.675 0.263
01:35 1011 29.85 840 24.81 6.4 43.6 88 4.6 40.3 6.675 0.263
01:36 1011 29.85 841 24.83 6.5 43.6 88 4.7 40.4 6.72 0.265
01:37 1011 29.85 840 24.81 6.5 43.7 88 4.7 40.4 6.759 0.266
01:38 1011 29.85 840 24.81 6.5 43.7 88 4.7 40.4 6.748 0.266
01:39 1011 29.85 840 24.81 6.5 43.6 88 4.7 40.4 6.765 0.266
01:40 1011 29.85 840 24.81 6.4 43.6 88 4.7 40.4 6.742 0.265
01:41 1011 29.85 840 24.81 6.5 43.6 89 4.7 40.5 6.748 0.266
01:42 1011 29.85 840 24.81 6.4 43.6 88 4.7 40.4 6.742 0.265
01:43 1011 29.85 840 24.81 6.4 43.6 89 4.7 40.4 6.776 0.267
01:44 1011 29.85 840 24.81 6.5 43.6 89 4.7 40.5 6.771 0.267
01:45 1011 29.85 840 24.81 6.5 43.6 89 4.8 40.6 6.765 0.266
01:46 1011 29.85 840 24.81 6.5 43.6 89 4.7 40.5 6.737 0.265
01:47 1011 29.85 840 24.81 6.5 43.6 89 4.7 40.5 6.759 0.266
01:48 1011 29.85 840 24.81 6.5 43.6 89 4.7 40.5 6.754 0.266
01:49 1011 29.85 840 24.81 6.4 43.6 89 4.8 40.6 6.776 0.267
01:50 1011 29.85 840 24.81 6.5 43.7 89 4.8 40.6 6.788 0.267
01:51 1011 29.85 841 24.83 6.4 43.6 89 4.8 40.6 6.742 0.265
01:52 1011 29.85 841 24.83 6.4 43.6 88 4.7 40.4 6.748 0.266
01:53 1011 29.85 840 24.81 6.4 43.6 89 4.7 40.4 6.737 0.265
01:54 1011 29.85 840 24.81 6.4 43.6 89 4.7 40.4 6.714 0.264
01:55 1011 29.85 840 24.81 6.4 43.6 89 4.7 40.5 6.742 0.265
01:56 1011 29.85 840 24.81 6.4 43.6 89 4.7 40.4 6.697 0.264
01:57 1011 29.85 840 24.81 6.4 43.6 89 4.7 40.4 6.692 0.263
01:58 1011 29.85 840 24.81 6.4 43.6 89 4.7 40.5 6.703 0.264
01:59 1011 29.85 840 24.81 6.4 43.5 89 4.8 40.6 6.669 0.263
02:00 1011 29.85 840 24.81 6.3 43.4 89 4.7 40.5 6.652 0.262
02:01 1011 29.85 840 24.81 6.4 43.4 90 4.8 40.6 6.607 0.26
02:02 1011 29.85 840 24.81 6.3 43.3 90 4.7 40.5 6.624 0.261
02:03 1011 29.85 840 24.81 6.3 43.3 90 4.7 40.5 6.612 0.26
02:04 1011 29.85 840 24.81 6.3 43.3 90 4.7 40.5 6.618 0.261
02:05 1011 29.85 840 24.81 6.3 43.3 90 4.7 40.5 6.59 0.259
02:06 1011 29.85 840 24.81 6.3 43.3 90 4.8 40.6 6.584 0.259
02:07 1011 29.85 840 24.81 6.2 43.2 90 4.8 40.6 6.528 0.257
02:08 1011 29.85 840 24.81 6.2 43.1 90 4.7 40.5 6.511 0.256
02:09 1011 29.85 840 24.81 6.2 43.1 90 4.7 40.5 6.533 0.257
02:10 1011 29.85 840 24.81 6.2 43.1 91 4.7 40.5 6.522 0.257
02:11 1011 29.85 840 24.81 6.2 43.1 91 4.8 40.6 6.488 0.255
02:12 1011 29.85 840 24.81 6.1 43 91 4.7 40.5 6.477 0.255
02:13 1011 29.85 840 24.81 6.2 43.1 91 4.7 40.5 6.437 0.253
02:14 1011 29.85 840 24.81 6.2 43.1 90 4.7 40.4 6.471 0.255
02:15 1011 29.85 840 24.81 6.1 43.1 90 4.6 40.4 6.471 0.255
02:16 1011 29.85 840 24.81 6.2 43.1 90 4.7 40.4 6.522 0.257
02:17 1011 29.85 840 24.81 6.3 43.3 90 4.7 40.5 6.539 0.257
02:18 1011 29.85 840 24.81 6.3 43.3 90 4.7 40.5 6.567 0.259
02:19 1011 29.85 840 24.81 6.2 43.2 90 4.7 40.4 6.533 0.257
02:20 1011 29.85 840 24.81 6.3 43.3 90 4.7 40.5 6.567 0.259
02:21 1011 29.85 840 24.81 6.3 43.3 90 4.7 40.5 6.533 0.257
02:22 1011 29.85 840 24.81 6.2 43.2 90 4.8 40.6 6.471 0.255
02:23 1011 29.85 840 24.81 6.2 43.1 90 4.7 40.5 6.471 0.255
02:24 1011 29.85 840 24.81 6.2 43.1 90 4.7 40.4 6.477 0.255
02:25 1011 29.85 840 24.81 6.2 43.1 90 4.6 40.4 6.522 0.257
02:26 1011 29.85 840 24.81 6.2 43.2 90 4.6 40.3 6.522 0.257
02:27 1011 29.85 840 24.81 6.2 43.2 90 4.7 40.4 6.516 0.257
02:28 1011 29.85 840 24.81 6.2 43.2 90 4.7 40.4 6.505 0.256
02:29 1011 29.85 840 24.81 6.2 43.2 90 4.7 40.5 6.528 0.257
02:30 1011 29.85 840 24.81 6.2 43.1 90 4.7 40.4 6.477 0.255
02:31 1011 29.85 840 24.81 6.2 43.1 90 4.7 40.4 6.488 0.255
02:32 1011 29.85 840 24.81 6.2 43.1 90 4.7 40.5 6.471 0.255
02:33 1011 29.85 840 24.81 6.1 43.1 90 4.7 40.4 6.477 0.255
02:34 1011 29.85 840 24.81 6.2 43.1 90 4.7 40.5 6.471 0.255
02:35 1011 29.85 840 24.81 6.2 43.1 90 4.7 40.4 6.471 0.255
02:36 1011 29.85 840 24.81 6.1 43 90 4.6 40.3 6.431 0.253
02:37 1011 29.85 840 24.81 6.1 43.1 90 4.6 40.4 6.46 0.254
02:38 1011 29.85 840 24.81 6.2 43.1 90 4.7 40.4 6.437 0.253
02:39 1011 29.85 840 24.81 6.1 43.1 90 4.7 40.4 6.437 0.253
02:40 1011 29.85 840 24.81 6.1 43 90 4.7 40.4 6.386 0.251
02:41 1011 29.85 840 24.81 6.1 43 90 4.7 40.4 6.38 0.251
02:42 1011 29.85 840 24.81 6.1 43 91 4.7 40.4 6.392 0.252
02:43 1011 29.85 840 24.81 6.1 42.9 91 4.6 40.4 6.375 0.251
02:44 1011 29.85 840 24.81 6.1 43 91 4.7 40.4 6.375 0.251
02:45 1011 29.85 840 24.81 6.1 43 90 4.7 40.4 6.414 0.253
02:46 1011 29.85 840 24.81 6.1 43 90 4.6 40.4 6.409 0.252
02:47 1011 29.85 840 24.81 6.1 43 90 4.7 40.4 6.38 0.251
02:48 1011 29.85 840 24.81 6.1 43 90 4.7 40.4 6.386 0.251
02:49 1011 29.85 840 24.81 6.1 42.9 91 4.7 40.4 6.409 0.252
02:50 1011 29.85 840 24.81 6.1 42.9 91 4.7 40.5 6.364 0.251
02:51 1011 29.85 840 24.81 6 42.8 91 4.7 40.4 6.347 0.25
02:52 1011 29.85 840 24.81 6 42.8 91 4.7 40.4 6.284 0.247
02:53 1011 29.85 840 24.81 6 42.8 91 4.7 40.4 6.245 0.246
02:54 1011 29.85 840 24.81 5.9 42.7 91 4.6 40.3 6.262 0.247
02:55 1011 29.85 840 24.81 5.9 42.7 91 4.6 40.3 6.228 0.245
02:56 1011 29.85 840 24.81 5.9 42.7 91 4.6 40.3 6.222 0.245
02:57 1011 29.85 840 24.81 5.9 42.7 91 4.6 40.3 6.245 0.246
02:58 1011 29.85 840 24.81 5.9 42.7 91 4.6 40.3 6.273 0.247
02:59 1011 29.85 840 24.81 6 42.7 91 4.6 40.4 6.267 0.247
03:00 1011 29.85 840 24.81 6 42.8 91 4.7 40.4 6.284 0.247
03:01 1011 29.85 840 24.81 6 42.8 91 4.7 40.4 6.262 0.247
03:02 1011 29.85 840 24.81 6 42.7 91 4.6 40.3 6.301 0.248
03:03 1011 29.85 840 24.81 6 42.8 91 4.6 40.3 6.301 0.248
03:04 1011 29.85 840 24.81 6 42.8 91 4.6 40.3 6.262 0.247
03:05 1011 29.85 840 24.81 6 42.8 91 4.6 40.3 6.29 0.248
03:06 1011 29.85 840 24.81 6 42.8 91 4.6 40.3 6.313 0.249
03:07 1011 29.85 840 24.81 6 42.9 91 4.7 40.4 6.239 0.246
03:08 1011 29.85 840 24.81 6 42.8 91 4.6 40.3 6.29 0.248
03:09 1011 29.85 840 24.81 6 42.8 91 4.6 40.3 6.301 0.248
03:10 1011 29.85 840 24.81 6 42.8 91 4.7 40.4 6.284 0.247
03:11 1011 29.85 840 24.81 6 42.8 91 4.6 40.4 6.267 0.247
03:12 1011 29.85 840 24.81 6 42.8 91 4.6 40.3 6.267 0.247
03:13 1011 29.85 840 24.81 6 42.8 91 4.6 40.3 6.256 0.246
03:14 1011 29.85 840 24.81 5.9 42.7 91 4.6 40.3 6.262 0.247
03:15 1011 29.85 840 24.81 6 42.8 91 4.6 40.2 6.284 0.247
03:16 1011 29.85 840 24.81 6 42.8 91 4.6 40.2 6.273 0.247
03:17 1011 29.85 840 24.81 6 42.7 91 4.5 40.2 6.296 0.248
03:18 1011 29.85 840 24.81 6 42.7 90 4.5 40.1 6.216 0.245
03:19 1011 29.85 840 24.81 6 42.8 90 4.5 40.1 6.296 0.248
03:20 1011 29.85 840 24.81 6 42.7 90 4.5 40.1 6.273 0.247
03:21 1011 29.85 840 24.81 6 42.7 90 4.5 40.1 6.262 0.247
03:22 1011 29.85 840 24.81 6 42.7 90 4.4 40 6.279 0.247
03:23 1011 29.85 840 24.81 6 42.8 90 4.4 40 6.273 0.247
03:24 1011 29.85 840 24.81 6 42.7 90 4.4 39.9 6.239 0.246
03:25 1011 29.85 840 24.81 6 42.8 90 4.4 39.9 6.267 0.247
03:26 1011 29.85 840 24.81 5.9 42.7 89 4.3 39.8 6.279 0.247
03:27 1011 29.85 840 24.81 6 42.7 89 4.3 39.8 6.228 0.245
03:28 1011 29.85 840 24.81 6 42.7 89 4.3 39.8 6.183 0.243
03:29 1011 29.85 840 24.81 5.9 42.7 89 4.3 39.8 6.171 0.243
03:30 1011 29.85 840 24.81 5.9 42.6 89 4.3 39.7 6.205 0.244
03:31 1011 29.85 840 24.81 5.9 42.7 89 4.2 39.6 6.233 0.245
03:32 1011 29.85 840 24.81 5.9 42.7 89 4.3 39.7 6.137 0.242
03:33 1011 29.85 840 24.81 5.9 42.6 89 4.2 39.6 6.177 0.243
03:34 1011 29.85 840 24.81 5.9 42.7 89 4.2 39.6 6.194 0.244
03:35 1011 29.85 840 24.81 5.9 42.7 89 4.2 39.5 6.188 0.244
03:36 1011 29.85 840 24.81 5.9 42.7 89 4.2 39.5 6.194 0.244
03:37 1011 29.85 840 24.81 5.9 42.7 89 4.2 39.6 6.177 0.243
03:38 1011 29.85 840 24.81 5.9 42.6 89 4.2 39.5 6.211 0.245
03:39 1011 29.85 840 24.81 5.9 42.7 89 4.2 39.6 6.211 0.245
03:40 1011 29.85 840 24.81 5.9 42.7 89 4.3 39.7 6.199 0.244
03:41 1011 29.85 840 24.81 5.9 42.7 88 4.2 39.5 6.233 0.245
03:42 1011 29.85 840 24.81 6 42.8 88 4.2 39.5 6.307 0.248
03:43 1011 29.85 840 24.81 6 42.9 88 4.1 39.5 6.352 0.25
03:44 1011 29.85 840 24.81 6.1 42.9 88 4.2 39.6 6.363 0.251
03:45 1011 29.85 840 24.81 6.1 42.9 88 4.3 39.7 6.386 0.251
03:46 1011 29.85 840 24.81 6 42.8 88 4.3 39.7 6.313 0.249
03:47 1011 29.85 840 24.81 6 42.7 89 4.3 39.7 6.256 0.246
03:48 1011 29.85 840 24.81 6 42.7 89 4.3 39.7 6.279 0.247
03:49 1011 29.85 840 24.81 6 42.7 89 4.3 39.7 6.284 0.247
03:50 1011 29.85 840 24.81 5.9 42.7 89 4.2 39.6 6.284 0.247
03:51 1011 29.85 840 24.81 5.9 42.7 89 4.3 39.7 6.284 0.247
03:52 1011 29.85 840 24.81 5.9 42.6 89 4.3 39.7 6.273 0.247
03:53 1011 29.85 840 24.81 5.9 42.6 89 4.3 39.7 6.228 0.245
03:54 1011 29.85 840 24.81 5.9 42.6 90 4.3 39.8 6.256 0.246
03:55 1011 29.85 840 24.81 5.9 42.6 89 4.3 39.8 6.246 0.246
03:56 1011 29.85 840 24.81 5.9 42.7 90 4.4 39.9 6.235 0.245
03:57 1011 29.85 840 24.81 6 42.7 89 4.3 39.8 6.309 0.248
03:58 1011 29.85 840 24.81 6 42.7 89 4.3 39.7 6.286 0.247
03:59 1011 29.85 840 24.81 6 42.8 89 4.3 39.8 6.353 0.25
04:00 1011 29.85 840 24.81 6 42.8 90 4.4 40 6.342 0.25
04:01 1011 29.85 840 24.81 6 42.8 90 4.4 39.9 6.319 0.249
04:02 1011 29.85 840 24.81 6 42.8 89 4.4 39.9 6.342 0.25
04:03 1011 29.85 840 24.81 6 42.9 89 4.4 40 6.376 0.251
04:04 1011 29.85 840 24.81 6 42.8 90 4.5 40.1 6.347 0.25
04:05 1011 29.85 840 24.81 6 42.8 90 4.5 40 6.347 0.25
04:06 1011 29.85 840 24.81 6 42.9 89 4.4 39.9 6.37 0.251
04:07 1011 29.85 840 24.81 6.1 42.9 89 4.4 40 6.364 0.251
04:08 1011 29.85 840 24.81 6.1 42.9 89 4.5 40 6.387 0.251
04:09 1011 29.85 840 24.81 6.1 42.9 89 4.4 40 6.392 0.252
04:10 1011 29.85 840 24.81 6.1 42.9 89 4.4 40 6.398 0.252
04:11 1011 29.85 840 24.81 6.1 43 89 4.4 40 6.398 0.252
04:12 1011 29.85 840 24.81 6.1 42.9 89 4.4 40 6.409 0.252
04:13 1011 29.85 840 24.81 6.1 42.9 89 4.5 40.1 6.404 0.252
04:14 1011 29.85 840 24.81 6.1 42.9 90 4.5 40.1 6.432 0.253
04:15 1011 29.85 840 24.81 6.1 42.9 89 4.4 40 6.381 0.251
04:16 1011 29.85 840 24.81 6.1 42.9 89 4.5 40 6.381 0.251
04:17 1011 29.85 840 24.81 6.1 42.9 89 4.4 40 6.415 0.253
04:18 1011 29.85 840 24.81 6.1 42.9 89 4.5 40 6.381 0.251
04:19 1011 29.85 840 24.81 6.1 42.9 89 4.4 40 6.398 0.252
04:20 1011 29.85 840 24.81 6.1 43 90 4.6 40.2 6.386 0.251
04:21 1011 29.85 840 24.81 6.1 42.9 89 4.4 40 6.369 0.251
04:22 1011 29.85 840 24.81 6 42.9 90 4.5 40.1 6.364 0.251
04:23 1011 29.85 840 24.81 6 42.9 90 4.5 40.1 6.369 0.251
04:24 1011 29.85 840 24.81 6 42.8 90 4.4 40 6.352 0.25
04:25 1011 29.85 840 24.81 6 42.8 90 4.4 40 6.347 0.25
04:26 1011 29.85 840 24.81 6 42.8 90 4.5 40.2 6.335 0.249
04:27 1011 29.85 840 24.81 6 42.8 90 4.5 40.1 6.318 0.249
04:28 1011 29.85 840 24.81 6 42.8 90 4.5 40.2 6.318 0.249
04:29 1011 29.85 840 24.81 5.9 42.7 90 4.4 40 6.273 0.247
04:30 1011 29.85 840 24.81 6 42.7 90 4.5 40.1 6.307 0.248
04:31 1011 29.85 840 24.81 6 42.7 90 4.4 40 6.284 0.247
04:32 1011 29.85 840 24.81 6 42.8 90 4.5 40.1 6.284 0.247
04:33 1011 29.85 840 24.81 6 42.7 90 4.4 40 6.273 0.247
04:34 1011 29.85 840 24.81 6 42.7 90 4.5 40.1 6.296 0.248
04:35 1011 29.85 840 24.81 6 42.8 90 4.5 40.1 6.335 0.249
04:36 1011 29.85 840 24.81 5.9 42.7 91 4.5 40.1 6.262 0.247
04:37 1011 29.85 840 24.81 5.9 42.7 90 4.5 40.1 6.234 0.245
04:38 1011 29.85 840 24.81 5.9 42.7 90 4.5 40.1 6.245 0.246
04:39 1011 29.85 840 24.81 5.9 42.7 91 4.5 40.2 6.284 0.247
04:40 1011 29.85 840 24.81 5.9 42.7 91 4.5 40.1 6.239 0.246
04:41 1011 29.85 840 24.81 5.9 42.7 90 4.4 40 6.228 0.245
04:42 1011 29.85 840 24.81 5.9 42.7 91 4.5 40.1 6.205 0.244
04:43 1011 29.85 840 24.81 5.9 42.7 91 4.5 40.1 6.273 0.247
04:44 1011 29.85 840 24.81 5.9 42.6 91 4.5 40.1 6.211 0.245
04:45 1011 29.85 840 24.81 5.9 42.7 90 4.4 40 6.256 0.246
04:46 1011 29.85 840 24.81 6 42.7 90 4.4 40 6.284 0.247
04:47 1011 29.85 840 24.81 6 42.8 89 4.4 39.9 6.313 0.249
04:48 1011 29.85 840 24.81 6 42.8 89 4.3 39.8 6.29 0.248
04:49 1011 29.85 840 24.81 6 42.8 89 4.4 39.9 6.301 0.248
04:50 1011 29.85 840 24.81 6 42.8 89 4.4 39.9 6.307 0.248
04:51 1011 29.85 840 24.81 6 42.8 90 4.5 40.1 6.296 0.248
04:52 1011 29.85 840 24.81 6 42.7 90 4.4 40 6.284 0.247
04:53 1011 29.85 840 24.81 6 42.7 90 4.4 40 6.29 0.248
04:54 1011 29.85 840 24.81 6 42.7 90 4.4 39.9 6.256 0.246
04:55 1011 29.85 840 24.81 6 42.8 90 4.4 39.9 6.284 0.247
04:56 1011 29.85 840 24.81 5.9 42.7 90 4.3 39.8 6.267 0.247
04:57 1011 29.85 840 24.81 5.9 42.7 90 4.4 39.8 6.284 0.247
04:58 1011 29.85 840 24.81 6 42.7 89 4.3 39.8 6.25 0.246
04:59 1011 29.85 840 24.81 6 42.7 89 4.3 39.8 6.29 0.248
05:00 1011 29.85 840 24.81 6 42.8 90 4.4 40 6.296 0.248
05:01 1011 29.85 840 24.81 6 42.7 89 4.4 39.9 6.262 0.247
05:02 1011 29.85 840 24.81 6 42.8 89 4.4 39.8 6.279 0.247
05:03 1011 29.85 840 24.81 5.9 42.7 90 4.4 39.9 6.279 0.247
05:04 1011 29.85 840 24.81 6 42.7 89 4.3 39.8 6.29 0.248
05:05 1011 29.85 840 24.81 6 42.7 89 4.3 39.7 6.284 0.247
05:06 1011 29.85 840 24.81 6 42.8 90 4.4 39.9 6.29 0.248
05:07 1011 29.85 840 24.81 5.9 42.7 90 4.4 39.9 6.262 0.247
05:08 1011 29.85 840 24.81 6 42.7 90 4.4 40 6.233 0.245
05:09 1011 29.85 840 24.81 5.9 42.7 90 4.5 40 6.25 0.246
05:10 1011 29.85 840 24.81 5.9 42.7 90 4.4 39.9 6.284 0.247
05:11 1011 29.85 840 24.81 5.9 42.7 90 4.4 39.8 6.245 0.246
05:12 1011 29.85 840 24.81 5.9 42.7 90 4.4 40 6.245 0.246
05:13 1011 29.85 840 24.81 5.9 42.7 90 4.4 39.9 6.273 0.247
05:14 1011 29.85 840 24.81 5.9 42.7 90 4.4 40 6.262 0.247
05:15 1011 29.85 840 24.81 5.9 42.6 90 4.4 39.9 6.262 0.247
05:16 1011 29.85 840 24.81 5.9 42.6 90 4.4 39.9 6.233 0.245
05:17 1011 29.85 840 24.81 5.9 42.7 90 4.4 40 6.239 0.246
05:18 1011 29.85 840 24.81 5.9 42.6 90 4.4 40 6.245 0.246
05:19 1011 29.85 840 24.81 5.9 42.6 90 4.4 40 6.16 0.243
05:20 1011 29.85 840 24.81 5.9 42.6 91 4.5 40.1 6.177 0.243
05:21 1011 29.85 840 24.81 5.9 42.6 91 4.5 40.1 6.183 0.243
05:22 1011 29.85 840 24.81 5.8 42.5 91 4.4 39.9 6.177 0.243
05:23 1011 29.85 840 24.81 5.9 42.6 91 4.5 40.1 6.143 0.242
05:24 1011 29.85 840 24.81 5.8 42.5 91 4.4 40 6.166 0.243
05:25 1011 29.85 840 24.81 5.8 42.5 91 4.4 40 6.171 0.243
05:26 1011 29.85 840 24.81 5.8 42.5 91 4.5 40 6.166 0.243
05:27 1011 29.85 840 24.81 5.8 42.4 91 4.4 40 6.211 0.245
05:28 1011 29.85 840 24.81 5.8 42.4 91 4.4 40 6.143 0.242
05:29 1011 29.85 840 24.81 5.8 42.4 91 4.4 39.9 6.149 0.242
05:30 1011 29.85 840 24.81 5.8 42.5 91 4.4 39.9 6.154 0.242
05:31 1011 29.85 840 24.81 5.8 42.5 90 4.4 39.8 6.137 0.242
05:32 1011 29.85 840 24.81 5.8 42.5 91 4.4 39.9 6.098 0.24
05:33 1011 29.85 840 24.81 5.8 42.5 90 4.4 39.8 6.126 0.241
05:34 1011 29.85 840 24.81 5.8 42.5 90 4.3 39.8 6.132 0.241
05:35 1011 29.85 840 24.81 5.8 42.5 90 4.2 39.6 6.132 0.241
05:36 1011 29.85 840 24.81 5.9 42.5 90 4.3 39.8 6.149 0.242
05:37 1011 29.85 840 24.81 5.8 42.5 90 4.3 39.7 6.166 0.243
05:38 1011 29.85 840 24.81 5.8 42.4 89 4.2 39.6 6.154 0.242
05:39 1011 29.85 840 24.81 5.9 42.5 89 4.3 39.7 6.12 0.241
05:40 1011 29.85 840 24.81 5.8 42.5 89 4.2 39.5 6.154 0.242
05:41 1011 29.85 840 24.81 5.9 42.6 89 4.2 39.6 6.137 0.242
05:42 1011 29.85 840 24.81 5.8 42.5 89 4.2 39.5 6.126 0.241
05:43 1011 29.85 840 24.81 5.8 42.5 89 4.1 39.4 6.183 0.243
05:44 1011 29.85 840 24.81 5.9 42.5 89 4.2 39.5 6.154 0.242
05:45 1011 29.85 840 24.81 5.8 42.5 89 4.1 39.4 6.171 0.243
05:46 1011 29.85 840 24.81 5.8 42.5 89 4.2 39.5 6.132 0.241
05:47 1011 29.85 840 24.81 5.9 42.5 88 4 39.3 6.137 0.242
05:48 1011 29.85 840 24.81 5.9 42.6 88 4.1 39.3 6.171 0.243
05:49 1011 29.85 840 24.81 5.9 42.6 88 4 39.2 6.171 0.243
05:50 1011 29.85 840 24.81 5.9 42.6 88 4 39.2 6.183 0.243
05:51 1011 29.85 840 24.81 5.9 42.6 87 3.9 39.1 6.154 0.242
05:52 1011 29.85 840 24.81 5.9 42.6 88 4 39.3 6.194 0.244
05:53 1011 29.85 840 24.81 5.9 42.7 88 4 39.2 6.177 0.243
05:54 1011 29.85 840 24.81 5.9 42.6 87 3.9 39.1 6.205 0.244
05:55 1011 29.85 840 24.81 5.9 42.7 87 4 39.2 6.211 0.245
05:56 1011 29.85 840 24.81 5.9 42.7 87 4 39.2 6.222 0.245
05:57 1011 29.85 840 24.81 5.9 42.6 88 4 39.2 6.222 0.245
05:58 1011 29.85 840 24.81 5.8 42.5 88 3.9 39.1 6.166 0.243
05:59 1011 29.85 840 24.81 5.9 42.6 88 4 39.1 6.171 0.243
06:00 1011 29.85 840 24.81 5.9 42.5 88 4 39.1 6.188 0.244
06:01 1011 29.85 840 24.81 5.9 42.6 87 4 39.1 6.171 0.243
06:02 1011 29.85 840 24.81 5.8 42.5 87 3.9 39 6.216 0.245
06:03 1011 29.85 840 24.81 5.9 42.6 88 4 39.2 6.16 0.243
06:04 1011 29.85 840 24.81 5.9 42.6 88 4 39.2 6.194 0.244
06:05 1011 29.85 840 24.81 5.9 42.6 87 3.8 38.9 6.2 0.244
06:06 1011 29.85 840 24.81 5.9 42.6 87 3.9 39.1 6.171 0.243
06:07 1011 29.85 840 24.81 5.9 42.7 87 3.9 39.1 6.211 0.245
06:08 1011 29.85 840 24.81 5.9 42.6 87 3.9 39 6.171 0.243
06:09 1011 29.85 840 24.81 5.9 42.6 87 3.9 39 6.166 0.243
06:10 1011 29.85 840 24.81 5.9 42.6 87 3.9 39.1 6.2 0.244
06:11 1011 29.85 840 24.81 5.9 42.6 87 3.8 38.9 6.211 0.245
06:12 1011 29.85 840 24.81 5.9 42.6 87 3.9 39.1 6.211 0.245
06:13 1011 29.85 840 24.81 5.9 42.6 87 3.9 39 6.183 0.243
06:14 1011 29.85 840 24.81 5.9 42.6 87 3.9 39 6.216 0.245
06:15 1011 29.85 840 24.81 5.9 42.7 87 3.9 39 6.211 0.245
06:16 1011 29.85 840 24.81 5.9 42.6 87 4 39.1 6.211 0.245
06:17 1011 29.85 840 24.81 5.9 42.6 87 3.9 39.1 6.239 0.246
06:18 1011 29.85 840 24.81 5.9 42.5 87 3.9 39.1 6.2 0.244
06:19 1011 29.85 840 24.81 5.9 42.6 87 3.9 39.1 6.228 0.245
06:20 1011 29.85 840 24.81 5.9 42.6 88 4 39.1 6.228 0.245
06:21 1011 29.85 840 24.81 5.9 42.6 88 4.1 39.3 6.228 0.245
06:22 1011 29.85 840 24.81 5.9 42.6 88 4 39.2 6.233 0.245
06:23 1011 29.85 840 24.81 5.9 42.6 88 4 39.3 6.239 0.246
06:24 1011 29.85 840 24.81 5.9 42.6 88 4.1 39.4 6.233 0.245
06:25 1011 29.85 840 24.81 5.9 42.6 88 4 39.3 6.216 0.245
06:26 1011 29.85 840 24.81 5.9 42.6 88 4 39.3 6.256 0.246
06:27 1011 29.85 840 24.81 5.9 42.6 88 4.1 39.3 6.262 0.247
06:28 1011 29.85 840 24.81 5.9 42.6 87 3.9 39 6.245 0.246
06:29 1011 29.85 840 24.81 5.9 42.7 86 3.8 38.9 6.262 0.247
06:30 1011 29.85 840 24.81 5.9 42.7 87 3.9 39.1 6.284 0.247
06:31 1011 29.85 840 24.81 6 42.8 87 4 39.3 6.262 0.247
06:32 1011 29.85 840 24.81 6 42.7 87 4 39.2 6.25 0.246
06:33 1011 29.85 840 24.81 6 42.7 87 3.9 39 6.273 0.247
06:34 1011 29.85 840 24.81 6 42.8 87 3.9 39.1 6.273 0.247
06:35 1011 29.85 840 24.81 6 42.8 86 3.9 39 6.318 0.249
06:36 1011 29.85 840 24.81 6 42.8 86 3.8 38.8 6.307 0.248
06:37 1011 29.85 840 24.81 6 42.9 86 3.8 38.9 6.352 0.25
06:38 1011 29.85 840 24.81 6 42.9 85 3.7 38.7 6.358 0.25
06:39 1011 29.85 840 24.81 6.1 42.9 86 3.9 39 6.392 0.252
06:40 1011 29.85 840 24.81 6.1 43 86 3.9 39 6.409 0.252
06:41 1011 29.85 840 24.81 6.1 42.9 86 4 39.1 6.443 0.254
06:42 1011 29.85 840 24.81 6.1 42.9 86 3.9 38.9 6.386 0.251
06:43 1011 29.85 840 24.81 6.1 42.9 86 3.8 38.9 6.386 0.251
06:44 1011 29.85 840 24.81 6.1 43 86 3.9 38.9 6.403 0.252
06:45 1011 29.85 840 24.81 6.1 43 86 3.9 38.9 6.42 0.253
06:46 1011 29.85 840 24.81 6.1 42.9 86 3.8 38.9 6.426 0.253
06:47 1011 29.85 840 24.81 6.1 43 85 3.8 38.9 6.409 0.252
06:48 1011 29.85 840 24.81 6.1 43 85 3.8 38.9 6.431 0.253
06:49 1011 29.85 840 24.81 6.1 43 86 4 39.2 6.46 0.254
06:50 1011 29.85 840 24.81 6.1 43 86 3.9 39 6.409 0.252
06:51 1011 29.85 840 24.81 6.1 43 86 3.9 39.1 6.392 0.252
06:52 1011 29.85 840 24.81 6.1 43 85 3.8 38.8 6.465 0.255
06:53 1011 29.85 840 24.81 6.1 43 85 3.8 38.9 6.431 0.253
06:54 1011 29.85 840 24.81 6.1 43.1 85 3.8 38.9 6.431 0.253
06:55 1011 29.85 840 24.81 6.1 43 85 3.8 38.8 6.477 0.255
06:56 1011 29.85 840 24.81 6.2 43.1 85 3.8 38.8 6.46 0.254
06:57 1011 29.85 840 24.81 6.2 43.1 85 3.7 38.7 6.477 0.255
06:58 1011 29.85 840 24.81 6.2 43.1 85 3.8 38.9 6.477 0.255
06:59 1011 29.85 840 24.81 6.2 43.1 85 3.9 39 6.499 0.256
07:00 1011 29.85 840 24.81 6.2 43.1 85 3.8 38.9 6.482 0.255
07:01 1011 29.85 840 24.81 6.2 43.1 85 3.9 38.9 6.528 0.257
07:02 1011 29.85 840 24.81 6.2 43.1 86 4 39.1 6.516 0.257
07:03 1011 29.85 840 24.81 6.2 43.1 85 3.9 39 6.533 0.257
07:04 1011 29.85 840 24.81 6.2 43.1 84 3.7 38.7 6.494 0.256
07:05 1011 29.85 840 24.81 6.2 43.2 85 3.9 38.9 6.528 0.257
07:06 1011 29.85 840 24.81 6.2 43.2 85 3.8 38.9 6.55 0.258
07:07 1011 29.85 840 24.81 6.3 43.3 85 3.9 39 6.556 0.258
07:08 1011 29.85 840 24.81 6.3 43.3 85 3.9 38.9 6.567 0.259
07:09 1011 29.85 840 24.81 6.2 43.2 85 4 39.2 6.601 0.26
07:10 1011 29.85 840 24.81 6.3 43.3 86 4 39.3 6.561 0.258
07:11 1011 29.85 840 24.81 6.3 43.3 86 4 39.2 6.573 0.259
07:12 1011 29.85 840 24.81 6.3 43.3 85 4 39.2 6.612 0.26
07:13 1011 29.85 840 24.81 6.3 43.3 85 4 39.2 6.59 0.259
07:14 1011 29.85 840 24.81 6.3 43.3 85 4 39.2 6.584 0.259
07:15 1011 29.85 840 24.81 6.3 43.3 85 4 39.2 6.629 0.261
07:16 1011 29.85 840 24.81 6.3 43.3 86 4.2 39.5 6.618 0.261
07:17 1011 29.85 840 24.81 6.3 43.3 86 4.2 39.5 6.635 0.261
07:18 1011 29.85 840 24.81 6.3 43.4 86 4.2 39.6 6.652 0.262
07:19 1011 29.85 840 24.81 6.3 43.4 86 4.1 39.3 6.675 0.263
07:20 1011 29.85 840 24.81 6.3 43.4 86 4.1 39.4 6.692 0.263
07:21 1011 29.85 840 24.81 6.3 43.4 85 4.1 39.3 6.703 0.264
07:22 1011 29.85 840 24.81 6.4 43.4 86 4.1 39.5 6.68 0.263
07:23 1011 29.85 840 24.81 6.4 43.4 86 4.1 39.4 6.697 0.264
07:24 1011 29.85 840 24.81 6.4 43.5 85 4.1 39.4 6.714 0.264
07:25 1011 29.85 840 24.81 6.4 43.5 86 4.2 39.5 6.737 0.265
07:26 1011 29.85 840 24.81 6.4 43.6 86 4.2 39.6 6.742 0.265
07:27 1011 29.85 840 24.81 6.4 43.6 86 4.2 39.6 6.799 0.268
07:28 1011 29.85 840 24.81 6.5 43.7 85 4.2 39.6 6.771 0.267
07:29 1011 29.85 840 24.81 6.5 43.6 85 4.1 39.3 6.816 0.268
07:30 1011 29.85 840 24.81 6.5 43.6 85 4.1 39.4 6.799 0.268
07:31 1011 29.85 840 24.81 6.5 43.7 85 4.1 39.5 6.816 0.268
07:32 1011 29.85 840 24.81 6.5 43.8 85 4.3 39.7 6.827 0.269
07:33 1011 29.85 840 24.81 6.5 43.8 85 4.2 39.6 6.889 0.271
07:34 1011 29.85 840 24.81 6.6 43.8 84 4 39.3 6.861 0.27
07:35 1011 29.85 840 24.81 6.6 43.9 85 4.3 39.8 6.923 0.273
07:36 1011 29.85 840 24.81 6.6 43.9 86 4.4 39.9 6.991 0.275
07:37 1011 29.85 840 24.81 6.6 43.9 85 4.2 39.6 6.974 0.275
07:38 1011 29.85 840 24.81 6.7 44 83 4.1 39.3 6.952 0.274
07:39 1011 29.85 840 24.81 6.6 43.9 84 4.1 39.5 6.957 0.274
07:40 1011 29.85 840 24.81 6.6 43.9 84 4.1 39.4 6.952 0.274
07:41 1011 29.85 840 24.81 6.7 44.1 86 4.5 40 7.05 0.278
07:42 1011 29.85 840 24.81 6.7 44.1 84 4.2 39.6 7.04 0.277
07:43 1011 29.85 840 24.81 6.8 44.2 84 4.2 39.6 7.09 0.279
07:44 1011 29.85 840 24.81 6.8 44.2 84 4.2 39.6 7.12 0.28
07:45 1011 29.85 840 24.81 6.8 44.2 85 4.4 39.9 7.17 0.282
07:46 1011 29.85 840 24.81 6.8 44.3 85 4.5 40.1 7.17 0.282
07:47 1011 29.85 840 24.81 6.9 44.3 85 4.6 40.2 7.22 0.284
07:48 1011 29.85 840 24.81 6.9 44.5 84 4.4 40 7.27 0.286
07:49 1011 29.85 840 24.81 7 44.5 84 4.4 40 7.3 0.287
07:50 1011 29.85 840 24.81 7 44.6 84 4.4 40 7.32 0.288
07:51 1011 29.85 840 24.81 7 44.6 85 4.6 40.3 7.35 0.289
07:52 1011 29.85 840 24.81 7 44.7 85 4.7 40.5 7.38 0.291
07:53 1011 29.85 840 24.81 7.1 44.8 84 4.6 40.3 7.46 0.294
07:54 1011 29.85 840 24.81 7.1 44.8 84 4.6 40.3 7.47 0.294
07:55 1011 29.85 840 24.81 7.1 44.8 83 4.5 40 7.44 0.293
07:56 1011 29.85 840 24.81 7.2 44.9 83 4.4 39.9 7.43 0.293
07:57 1011 29.85 840 24.81 7.1 44.8 83 4.4 39.9 7.42 0.292
07:58 1011 29.85 840 24.81 7.1 44.8 83 4.4 39.9 7.44 0.293
07:59 1011 29.85 840 24.81 7.1 44.9 83 4.4 39.9 7.43 0.293
08:00 1011 29.85 840 24.81 7.1 44.8 83 4.5 40.1 7.46 0.294
08:01 1011 29.85 840 24.81 7.1 44.9 84 4.6 40.3 7.52 0.296
08:02 1011 29.85 840 24.81 7.2 44.9 82 4.3 39.7 7.54 0.297
08:03 1011 29.85 840 24.81 7.2 44.9 84 4.6 40.3 7.55 0.297
08:04 1011 29.85 840 24.81 7.2 45 83 4.5 40.1 7.57 0.298
08:05 1011 29.85 840 24.81 7.2 45 82 4.4 39.9 7.61 0.3
08:06 1011 29.85 840 24.81 7.3 45.1 84 4.7 40.4 7.6 0.299
08:07 1011 29.85 840 24.81 7.3 45.1 83 4.5 40.1 7.64 0.301
08:08 1011 29.85 840 24.81 7.3 45.1 82 4.4 39.9 7.6 0.299
08:09 1011 29.85 840 24.81 7.3 45.1 83 4.6 40.3 7.6 0.299
08:10 1011 29.85 840 24.81 7.3 45.1 83 4.6 40.4 7.62 0.3
08:11 1011 29.85 840 24.81 7.4 45.2 85 5 41 7.74 0.305
08:12 1011 29.85 840 24.81 7.4 45.3 83 4.7 40.4 7.81 0.307
08:13 1011 29.85 840 24.81 7.4 45.3 83 4.7 40.4 7.82 0.308
08:14 1011 29.85 840 24.81 7.4 45.4 83 4.8 40.6 7.8 0.307
08:15 1011 29.85 840 24.81 7.4 45.4 83 4.7 40.5 7.81 0.307
08:16 1011 29.85 840 24.81 7.5 45.5 83 4.7 40.5 7.84 0.309
08:17 1011 29.85 840 24.81 7.5 45.4 83 4.7 40.5 7.83 0.308
08:18 1011 29.85 840 24.81 7.5 45.5 83 4.9 40.8 7.86 0.309
08:19 1011 29.85 840 24.81 7.5 45.5 83 4.8 40.6 7.94 0.313
08:20 1011 29.85 840 24.81 7.5 45.5 83 4.8 40.6 7.96 0.313
08:21 1011 29.85 840 24.81 7.6 45.7 83 5 40.9 8.02 0.316
08:22 1011 29.85 840 24.81 7.6 45.7 82 4.8 40.7 8.03 0.316
08:23 1011 29.85 840 24.81 7.6 45.8 83 5 41 8.05 0.317
08:24 1011 29.85 840 24.81 7.7 45.8 83 5 40.9 8.11 0.319
08:25 1011 29.85 840 24.81 7.8 46 83 5 41 8.18 0.322
08:26 1011 29.85 840 24.81 7.8 46 82 5 41 8.23 0.324
08:27 1011 29.85 840 24.81 7.9 46.1 81 4.8 40.6 8.24 0.324
08:28 1011 29.85 840 24.81 7.9 46.2 83 5.1 41.2 8.23 0.324
08:29 1011 29.85 840 24.81 7.9 46.2 82 5 41 8.28 0.326
08:30 1011 29.85 840 24.81 7.9 46.3 82 5 41 8.3 0.327
08:31 1011 29.85 840 24.81 7.9 46.3 83 5.2 41.4 8.33 0.328
08:32 1011 29.85 840 24.81 8 46.3 80 4.7 40.5 8.33 0.328
08:33 1011 29.85 840 24.81 7.9 46.3 83 5.2 41.4 8.28 0.326
08:34 1011 29.85 840 24.81 7.9 46.3 82 5.1 41.2 8.31 0.327
08:35 1011 29.85 840 24.81 8 46.3 85 5.6 42 8.37 0.33
08:36 1011 29.85 840 24.81 7.9 46.3 87 5.9 42.5 8.35 0.329
08:37 1011 29.85 840 24.81 7.9 46.3 88 6 42.8 8.39 0.33
08:38 1011 29.85 840 24.81 8 46.3 89 6.3 43.3 8.42 0.331
08:39 1011 29.85 840 24.81 7.9 46.2 89 6.2 43.1 8.41 0.331
08:40 1011 29.85 840 24.81 7.9 46.1 89 6.2 43.2 8.35 0.329
08:41 1011 29.85 840 24.81 7.8 46.1 90 6.3 43.4 8.29 0.326
08:42 1011 29.85 840 24.81 7.7 45.9 91 6.3 43.3 8.22 0.324
08:43 1011 29.85 840 24.81 7.7 45.9 91 6.4 43.5 8.19 0.322
08:44 1011 29.85 840 24.81 7.7 45.8 91 6.3 43.3 8.15 0.321
08:45 1011 29.85 840 24.81 7.6 45.7 92 6.3 43.4 8.09 0.319
08:46 1011 29.85 840 24.81 7.6 45.7 91 6.2 43.2 8.06 0.317
08:47 1011 29.85 840 24.81 7.6 45.7 92 6.4 43.6 8.03 0.316
08:48 1011 29.85 840 24.81 7.6 45.6 91 6.2 43.2 8.01 0.315
08:49 1011 29.85 840 24.81 7.5 45.5 92 6.2 43.2 7.96 0.313
08:50 1011 29.85 840 24.81 7.5 45.5 91 6.1 43.1 7.88 0.31
08:51 1011 29.85 840 24.81 7.4 45.4 91 6 42.9 7.82 0.308
08:52 1011 29.85 840 24.81 7.3 45.2 91 6 42.8 7.72 0.304
08:53 1011 29.85 840 24.81 7.3 45.2 92 6.1 42.9 7.74 0.305
08:54 1011 29.85 840 24.81 7.3 45.2 91 6 42.8 7.7 0.303
08:55 1011 29.85 840 24.81 7.3 45.1 92 6.1 43 7.72 0.304
08:56 1011 29.85 840 24.81 7.3 45.1 92 6.1 43 7.66 0.302
08:57 1011 29.85 840 24.81 7.3 45.1 93 6.2 43.1 7.7 0.303
08:58 1011 29.85 840 24.81 7.3 45.1 92 6.1 42.9 7.68 0.302
08:59 1011 29.85 840 24.81 7.3 45.1 92 6.1 43 7.7 0.303
09:00 1011 29.85 840 24.81 7.3 45.1 92 6.1 43 7.71 0.304
09:01 1011 29.85 840 24.81 7.3 45.1 92 6 42.9 7.69 0.303
09:02 1011 29.85 840 24.81 7.3 45.1 92 6.1 42.9 7.67 0.302
09:03 1011 29.85 840 24.81 7.2 45 92 6.1 42.9 7.66 0.302
09:04 1011 29.85 840 24.81 7.3 45.1 93 6.1 43 7.66 0.302
09:05 1011 29.85 840 24.81 7.2 45 92 6 42.8 7.67 0.302
09:06 1011 29.85 840 24.81 7.2 45 92 6 42.9 7.63 0.3
09:07 1011 29.85 840 24.81 7.2 44.9 92 6 42.8 7.59 0.299
09:08 1011 29.85 840 24.81 7.1 44.8 93 6.1 42.9 7.55 0.297
09:09 1011 29.85 840 24.81 7.1 44.8 93 6 42.9 7.52 0.296
09:10 1011 29.85 840 24.81 7.1 44.8 93 6.1 43.1 7.6 0.299
09:11 1011 29.85 840 24.81 7.1 44.8 93 6.1 42.9 7.57 0.298
09:12 1011 29.85 840 24.81 7.1 44.8 93 6.1 43 7.52 0.296
09:13 1011 29.85 840 24.81 7.1 44.8 93 6 42.9 7.48 0.294
09:14 1011 29.85 840 24.81 7.1 44.7 93 6 42.8 7.44 0.293
09:15 1011 29.85 840 24.81 7.1 44.7 93 6 42.8 7.45 0.293
09:16 1011 29.85 840 24.81 7 44.6 94 6 42.8 7.44 0.293
09:17 1011 29.85 840 24.81 7 44.6 94 6.1 43 7.43 0.293
09:18 1011 29.85 840 24.81 7 44.6 94 6 42.9 7.46 0.294
09:19 1011 29.85 840 24.81 7 44.6 94 6.1 42.9 7.41 0.292
09:20 1011 29.85 840 24.81 6.9 44.5 94 6 42.8 7.37 0.29
09:21 1011 29.85 840 24.81 6.9 44.5 94 6.1 43 7.37 0.29
09:22 1011 29.85 840 24.81 6.9 44.4 94 6 42.7 7.34 0.289
09:23 1011 29.85 840 24.81 6.8 44.3 94 6 42.7 7.26 0.286
09:24 1011 29.85 840 24.81 6.8 44.2 94 5.9 42.6 7.21 0.284
09:25 1011 29.85 840 24.81 6.7 44.1 94 5.8 42.5 7.15 0.281
09:26 1011 29.85 840 24.81 6.7 44 94 5.8 42.4 7.16 0.282
09:27 1011 29.85 840 24.81 6.7 44.1 95 5.9 42.6 7.14 0.281
09:28 1011 29.85 840 24.81 6.7 44 94 5.8 42.5 7.15 0.281
09:29 1011 29.85 840 24.81 6.7 44.1 94 5.8 42.5 7.13 0.281
09:30 1011 29.85 840 24.81 6.7 44 94 5.8 42.4 7.08 0.279
09:31 1011 29.85 840 24.81 6.7 44.1 95 5.9 42.6 7.14 0.281
09:32 1011 29.85 840 24.81 6.7 44 94 5.8 42.4 7.12 0.28
09:33 1011 29.85 840 24.81 6.6 43.9 94 5.8 42.4 7.1 0.28
09:34 1011 29.85 840 24.81 6.6 43.9 95 5.8 42.5 7.04 0.277
09:35 1011 29.85 840 24.81 6.6 43.9 94 5.8 42.4 7.07 0.278
09:36 1011 29.85 841 24.83 6.6 43.9 95 5.8 42.4 7 0.276
09:37 1011 29.85 841 24.83 6.5 43.7 95 5.7 42.3 6.933 0.273
09:38 1011 29.85 841 24.83 6.5 43.7 95 5.7 42.3 6.877 0.271
09:39 1011 29.85 841 24.83 6.5 43.7 95 5.7 42.3 6.898 0.272
09:40 1011 29.85 841 24.83 6.5 43.6 95 5.7 42.3 6.915 0.272
09:41 1011 29.85 841 24.83 6.5 43.6 95 5.7 42.3 6.807 0.268
09:42 1011 29.85 841 24.83 6.4 43.6 95 5.7 42.2 6.813 0.268
09:43 1011 29.85 841 24.83 6.4 43.5 95 5.7 42.2 6.802 0.268
09:44 1011 29.85 841 24.83 6.4 43.5 95 5.6 42.2 6.768 0.266
09:45 1011 29.85 841 24.83 6.3 43.4 95 5.6 42.1 6.736 0.265
09:46 1011 29.85 841 24.83 6.3 43.4 95 5.6 42.2 6.696 0.264
09:47 1011 29.85 841 24.83 6.3 43.4 95 5.6 42.1 6.735 0.265
09:48 1011 29.85 841 24.83 6.3 43.4 96 5.6 42.2 6.769 0.266
09:49 1011 29.85 841 24.83 6.3 43.3 95 5.5 42 6.679 0.263
09:50 1011 29.85 841 24.83 6.1 43 95 5.4 41.7 6.566 0.259
09:51 1011 29.85 841 24.83 6 42.8 95 5.3 41.6 6.465 0.255
09:52 1011 29.85 841 24.83 5.9 42.7 95 5.3 41.5 6.364 0.251
09:53 1011 29.85 841 24.83 5.9 42.6 96 5.3 41.5 6.325 0.249
09:54 1011 29.85 841 24.83 5.9 42.5 95 5.2 41.3 6.274 0.247
09:55 1011 29.85 841 24.83 5.8 42.5 95 5.1 41.2 6.235 0.245
09:56 1012 29.88 841 24.83 5.8 42.5 96 5.2 41.3 6.201 0.244
09:57 1012 29.88 841 24.83 5.8 42.5 96 5.2 41.3 6.196 0.244
09:58 1012 29.88 841 24.83 5.8 42.4 96 5.2 41.3 6.162 0.243
09:59 1012 29.88 841 24.83 5.8 42.4 96 5.1 41.2 6.162 0.243
10:00 1012 29.88 841 24.83 5.7 42.3 96 5.1 41.2 6.14 0.242
10:01 1012 29.88 841 24.83 5.7 42.3 96 5.1 41.2 6.151 0.242
10:02 1012 29.88 841 24.83 5.7 42.3 96 5.1 41.2 6.163 0.243
10:03 1012 29.88 841 24.83 5.7 42.3 96 5.1 41.3 6.146 0.242
10:04 1012 29.88 841 24.83 5.8 42.4 96 5.2 41.4 6.175 0.243
10:05 1012 29.88 841 24.83 5.7 42.3 96 5.1 41.2 6.135 0.242
10:06 1012 29.88 841 24.83 5.7 42.3 96 5.1 41.2 6.141 0.242
10:07 1012 29.88 841 24.83 5.7 42.2 96 5.1 41.1 6.141 0.242
10:08 1012 29.88 841 24.83 5.7 42.2 96 5 41 6.102 0.24
10:09 1012 29.88 841 24.83 5.7 42.2 96 5.1 41.1 6.051 0.238
10:10 1012 29.88 841 24.83 5.7 42.2 96 5 41.1 6.096 0.24
10:11 1012 29.88 841 24.83 5.7 42.2 96 5 41 6.029 0.237
10:12 1012 29.88 841 24.83 5.7 42.2 96 5 41 6.04 0.238
10:13 1012 29.88 841 24.83 5.7 42.2 96 5 41 6.046 0.238
10:14 1012 29.88 841 24.83 5.7 42.2 96 5 41.1 6.018 0.237
10:15 1012 29.88 841 24.83 5.7 42.3 96 5.1 41.2 6.097 0.24
10:16 1012 29.88 841 24.83 5.7 42.3 96 5.1 41.3 6.142 0.242
10:17 1012 29.88 841 24.83 5.8 42.4 96 5.2 41.3 6.159 0.242
10:18 1012 29.88 841 24.83 5.8 42.4 96 5.2 41.3 6.165 0.243
10:19 1012 29.88 841 24.83 5.8 42.4 96 5.1 41.2 6.159 0.242
10:20 1012 29.88 841 24.83 5.8 42.4 96 5.1 41.3 6.188 0.244
10:21 1012 29.88 841 24.83 5.8 42.4 96 5.2 41.3 6.159 0.242
10:22 1012 29.88 841 24.83 5.8 42.4 95 5.1 41.2 6.148 0.242
10:23 1012 29.88 841 24.83 5.8 42.4 96 5.1 41.2 6.142 0.242
10:24 1012 29.88 841 24.83 5.8 42.4 96 5.1 41.2 6.137 0.242
10:25 1012 29.88 841 24.83 5.7 42.3 95 5.1 41.1 6.137 0.242
10:26 1012 29.88 841 24.83 5.7 42.3 96 5.1 41.2 6.103 0.24
10:27 1012 29.88 841 24.83 5.8 42.4 96 5.1 41.2 6.176 0.243
10:28 1012 29.88 841 24.83 5.8 42.4 96 5.1 41.2 6.205 0.244
10:29 1012 29.88 841 24.83 5.8 42.4 96 5.1 41.2 6.194 0.244
10:30 1012 29.88 841 24.83 5.8 42.4 95 5.1 41.1 6.16 0.243
10:31 1012 29.88 841 24.83 5.7 42.3 95 5.1 41.1 6.131 0.241
10:32 1012 29.88 841 24.83 5.7 42.3 95 5 41.1 6.109 0.241
10:33 1012 29.88 841 24.83 5.7 42.3 95 5 41.1 6.114 0.241
10:34 1012 29.88 841 24.83 5.7 42.3 95 5 41 6.103 0.24
10:35 1012 29.88 841 24.83 5.7 42.3 95 5 41 6.064 0.239
10:36 1012 29.88 841 24.83 5.7 42.3 95 5 40.9 6.064 0.239
10:37 1012 29.88 841 24.83 5.7 42.3 95 5 41 6.052 0.238
10:38 1012 29.88 841 24.83 5.7 42.2 95 4.9 40.9 6.041 0.238
10:39 1012 29.88 841 24.83 5.7 42.3 95 5 41 6.075 0.239
10:40 1012 29.88 841 24.83 5.7 42.3 95 5 41 6.098 0.24
10:41 1012 29.88 841 24.83 5.7 42.3 95 5 40.9 6.081 0.239
10:42 1012 29.88 841 24.83 5.8 42.4 95 5 41 6.098 0.24
10:43 1012 29.88 841 24.83 5.7 42.3 95 4.9 40.9 6.086 0.24
10:44 1012 29.88 841 24.83 5.7 42.2 95 4.9 40.9 6.064 0.239
10:45 1012 29.88 841 24.83 5.7 42.3 95 5 41 6.103 0.24
10:46 1012 29.88 841 24.83 5.7 42.3 95 4.9 40.9 6.058 0.239
10:47 1012 29.88 841 24.83 5.7 42.3 95 5 41 6.092 0.24
10:48 1012 29.88 841 24.83 5.8 42.4 95 5 41 6.154 0.242
10:49 1012 29.88 841 24.83 5.8 42.5 95 5.1 41.2 6.177 0.243
10:50 1012 29.88 841 24.83 5.9 42.6 95 5.2 41.3 6.205 0.244
10:51 1012 29.88 841 24.83 5.9 42.6 95 5.2 41.3 6.267 0.247
10:52 1012 29.88 841 24.83 5.8 42.5 95 5.1 41.1 6.228 0.245
10:53 1012 29.88 841 24.83 5.9 42.6 95 5.1 41.2 6.267 0.247
10:54 1012 29.88 841 24.83 5.9 42.7 94 5.1 41.2 6.228 0.245
10:55 1012 29.88 841 24.83 5.8 42.5 94 5 40.9 6.205 0.244
10:56 1012 29.88 841 24.83 5.8 42.5 94 4.9 40.8 6.154 0.242
10:57 1012 29.88 841 24.83 5.8 42.5 94 4.9 40.8 6.143 0.242
10:58 1012 29.88 841 24.83 5.8 42.4 94 4.9 40.8 6.126 0.241
10:59 1012 29.88 841 24.83 5.7 42.3 94 4.9 40.8 6.098 0.24
11:00 1012 29.88 841 24.83 5.8 42.4 94 4.9 40.8 6.086 0.24
11:01 1012 29.88 841 24.83 5.8 42.4 94 4.8 40.7 6.098 0.24
11:02 1012 29.88 841 24.83 5.8 42.4 94 4.9 40.9 6.098 0.24
11:03 1012 29.88 841 24.83 5.8 42.4 94 4.9 40.9 6.075 0.239
11:04 1012 29.88 841 24.83 5.8 42.4 94 4.9 40.7 6.143 0.242
11:05 1012 29.88 841 24.83 5.8 42.4 95 5 40.9 6.092 0.24
11:06 1012 29.88 841 24.83 5.8 42.4 94 4.9 40.9 6.183 0.243
11:07 1012 29.88 841 24.83 5.8 42.4 93 4.8 40.6 6.081 0.239
11:08 1012 29.88 841 24.83 5.8 42.4 93 4.8 40.6 6.075 0.239
11:09 1012 29.88 841 24.83 5.8 42.4 94 4.8 40.6 6.103 0.24
11:10 1012 29.88 841 24.83 5.7 42.3 93 4.7 40.5 6.109 0.241
11:11 1012 29.88 841 24.83 5.8 42.4 93 4.7 40.5 6.075 0.239
11:12 1012 29.88 841 24.83 5.7 42.3 93 4.7 40.4 6.058 0.239
11:13 1012 29.88 841 24.83 5.7 42.3 93 4.6 40.3 6.002 0.236
11:14 1012 29.88 841 24.83 5.7 42.3 93 4.7 40.5 6.075 0.239
11:15 1012 29.88 841 24.83 5.7 42.3 93 4.6 40.3 6.041 0.238
11:16 1012 29.88 841 24.83 5.7 42.3 93 4.7 40.5 6.03 0.237
11:17 1012 29.88 841 24.83 5.7 42.3 93 4.7 40.5 6.081 0.239
11:18 1012 29.88 841 24.83 5.7 42.3 93 4.7 40.4 6.086 0.24
11:19 1012 29.88 841 24.83 5.7 42.3 93 4.6 40.3 6.047 0.238
11:20 1012 29.88 841 24.83 5.7 42.2 93 4.6 40.3 6.002 0.236
11:21 1012 29.88 841 24.83 5.7 42.2 93 4.6 40.2 6.013 0.237
11:22 1012 29.88 841 24.83 5.7 42.3 94 4.8 40.6 6.019 0.237
11:23 1012 29.88 841 24.83 5.7 42.3 93 4.7 40.5 6.086 0.24
11:24 1012 29.88 841 24.83 5.7 42.3 93 4.7 40.5 6.064 0.239
11:25 1012 29.88 841 24.83 5.7 42.3 94 4.8 40.6 6.024 0.237
11:26 1012 29.88 841 24.83 5.8 42.4 94 4.9 40.8 6.103 0.24
11:27 1012 29.88 841 24.83 5.7 42.3 94 4.8 40.7 6.12 0.241
11:28 1012 29.88 841 24.83 5.7 42.3 93 4.7 40.5 6.098 0.24
11:29 1012 29.88 841 24.83 5.7 42.2 93 4.7 40.5 6.058 0.239
11:30 1012 29.88 841 24.83 5.7 42.2 93 4.6 40.3 6.035 0.238
11:31 1012 29.88 841 24.83 5.6 42.1 94 4.7 40.5 6.007 0.236
11:32 1012 29.88 841 24.83 5.6 42.2 93 4.7 40.4 6.007 0.236
11:33 1012 29.88 841 24.83 5.6 42.1 94 4.7 40.4 5.968 0.235
11:34 1012 29.88 841 24.83 5.6 42.1 94 4.6 40.4 5.951 0.234
11:35 1012 29.88 841 24.83 5.6 42 94 4.7 40.4 5.911 0.233
11:36 1012 29.88 842 24.86 5.6 42 94 4.6 40.4 5.9 0.232
11:37 1012 29.88 841 24.83 5.5 41.9 94 4.6 40.2 5.9 0.232
11:38 1012 29.88 841 24.83 5.5 41.9 94 4.6 40.2 5.871 0.231
11:39 1012 29.88 842 24.86 5.5 41.8 94 4.6 40.2 5.877 0.231
11:40 1012 29.88 841 24.83 5.5 41.8 94 4.5 40.1 5.792 0.228
11:41 1012 29.88 842 24.86 5.4 41.8 94 4.5 40.1 5.775 0.227
11:42 1012 29.88 841 24.83 5.4 41.7 94 4.5 40.1 5.792 0.228
11:43 1012 29.88 842 24.86 5.4 41.7 94 4.6 40.2 5.821 0.229
11:44 1012 29.88 842 24.86 5.4 41.8 94 4.6 40.3 5.804 0.229
11:45 1012 29.88 842 24.86 5.4 41.8 95 4.7 40.4 5.775 0.227
11:46 1012 29.88 842 24.86 5.4 41.7 95 4.6 40.3 5.826 0.229
11:47 1012 29.88 842 24.86 5.4 41.7 95 4.6 40.3 5.787 0.228
11:48 1012 29.88 842 24.86 5.4 41.7 94 4.5 40.2 5.73 0.226
11:49 1012 29.88 842 24.86 5.3 41.6 95 4.5 40.2 5.685 0.224
11:50 1012 29.88 842 24.86 5.3 41.6 95 4.6 40.3 5.736 0.226
11:51 1012 29.88 842 24.86 5.4 41.6 95 4.6 40.4 5.73 0.226
11:52 1012 29.88 842 24.86 5.3 41.6 95 4.6 40.3 5.741 0.226
11:53 1012 29.88 842 24.86 5.3 41.6 95 4.6 40.3 5.719 0.225
11:54 1012 29.88 842 24.86 5.3 41.6 95 4.6 40.2 5.724 0.225
11:55 1012 29.88 842 24.86 5.3 41.5 95 4.5 40.1 5.657 0.223
11:56 1012 29.88 842 24.86 5.2 41.4 95 4.5 40.1 5.668 0.223
11:57 1012 29.88 842 24.86 5.3 41.5 95 4.6 40.2 5.674 0.223
11:58 1012 29.88 842 24.86 5.3 41.5 95 4.5 40.1 5.679 0.224
11:59 1012 29.88 842 24.86 5.2 41.4 95 4.5 40.2 5.668 0.223
12:00 1012 29.88 842 24.86 5.3 41.6 95 4.6 40.3 5.662 0.223
12:01 1012 29.88 842 24.86 5.3 41.6 95 4.7 40.4 5.702 0.224
12:02 1012 29.88 842 24.86 5.4 41.7 96 4.7 40.5 5.73 0.226
12:03 1013 29.91 842 24.86 5.4 41.7 96 4.7 40.5 5.792 0.228
12:04 1013 29.91 842 24.86 5.4 41.8 96 4.8 40.6 5.781 0.228
12:05 1013 29.91 842 24.86 5.4 41.7 96 4.7 40.5 5.798 0.228
12:06 1013 29.91 842 24.86 5.4 41.7 95 4.7 40.5 5.736 0.226
12:07 1013 29.91 842 24.86 5.3 41.6 95 4.6 40.2 5.702 0.224
12:08 1013 29.91 842 24.86 5.3 41.5 95 4.6 40.2 5.73 0.226
12:09 1013 29.91 842 24.86 5.3 41.5 95 4.6 40.2 5.617 0.221
12:10 1013 29.91 842 24.86 5.3 41.5 95 4.6 40.2 5.623 0.221
12:11 1013 29.91 842 24.86 5.2 41.4 95 4.5 40.1 5.64 0.222
12:12 1013 29.91 842 24.86 5.2 41.3 95 4.4 40 5.555 0.219
12:13 1013 29.91 842 24.86 5.1 41.2 95 4.3 39.8 5.498 0.216
12:14 1013 29.91 842 24.86 5 41.1 95 4.3 39.7 5.453 0.215
12:15 1013 29.91 842 24.86 5 41 95 4.3 39.7 5.391 0.212
12:16 1013 29.91 842 24.86 5 41 95 4.2 39.6 5.408 0.213
12:17 1013 29.91 842 24.86 5 41 95 4.3 39.7 5.385 0.212
12:18 1013 29.91 842 24.86 5 40.9 95 4.2 39.6 5.323 0.21
12:19 1013 29.91 842 24.86 4.9 40.8 94 4.1 39.3 5.227 0.206
12:20 1013 29.91 842 24.86 4.8 40.6 95 4 39.2 5.119 0.202
12:21 1013 29.91 842 24.86 4.7 40.5 95 4 39.2 5.085 0.2
12:22 1013 29.91 842 24.86 4.7 40.5 94 3.9 39 5.046 0.199
12:23 1013 29.91 842 24.86 4.6 40.3 95 3.8 38.9 4.984 0.196
12:24 1013 29.91 842 24.86 4.6 40.2 95 3.8 38.8 4.899 0.193
12:25 1013 29.91 842 24.86 4.6 40.2 95 3.8 38.9 4.876 0.192
12:26 1013 29.91 842 24.86 4.5 40 95 3.7 38.7 4.825 0.19
12:27 1013 29.91 842 24.86 4.4 39.9 95 3.7 38.7 4.763 0.188
12:28 1013 29.91 842 24.86 4.4 39.9 96 3.7 38.7 4.797 0.189
12:29 1013 29.91 842 24.86 4.4 39.8 95 3.7 38.6 4.752 0.187
12:30 1013 29.91 842 24.86 4.4 39.8 96 3.7 38.7 4.729 0.186
12:31 1013 29.91 842 24.86 4.3 39.7 95 3.6 38.4 4.667 0.184
12:32 1013 29.91 842 24.86 4.1 39.4 94 3.3 37.9 4.497 0.177
12:33 1013 29.91 842 24.86 4 39.2 94 3.2 37.7 4.288 0.169
12:34 1013 29.91 842 24.86 3.9 39 94 3 37.5 4.209 0.166
12:35 1013 29.91 842 24.86 3.8 38.9 95 3 37.5 4.124 0.162
12:36 1013 29.91 842 24.86 3.7 38.7 94 2.9 37.2 4.016 0.158
12:37 1013 29.91 842 24.86 3.7 38.6 95 2.9 37.2 3.983 0.157
12:38 1013 29.91 842 24.86 3.7 38.6 95 2.9 37.2 4.011 0.158
12:39 1013 29.91 842 24.86 3.6 38.6 94 2.8 37.1 3.966 0.156
12:40 1013 29.91 842 24.86 3.6 38.4 93 2.6 36.6 3.83 0.151
12:41 1013 29.91 842 24.86 3.5 38.4 94 2.6 36.7 3.83 0.151
12:42 1013 29.91 842 24.86 3.5 38.3 94 2.6 36.7 3.768 0.148
12:43 1013 29.91 842 24.86 3.5 38.3 94 2.6 36.7 3.802 0.15
12:44 1013 29.91 842 24.86 3.4 38.2 94 2.5 36.5 3.779 0.149
12:45 1013 29.91 842 24.86 3.4 38.1 94 2.5 36.5 3.722 0.147
12:46 1013 29.91 842 24.86 3.3 38 94 2.5 36.5 3.705 0.146
12:47 1013 29.91 842 24.86 3.4 38 94 2.5 36.5 3.711 0.146
12:48 1013 29.91 842 24.86 3.3 38 94 2.4 36.4 3.643 0.143
12:49 1013 29.91 842 24.86 3.3 37.9 95 2.5 36.5 3.666 0.144
12:50 1013 29.91 843 24.89 3.3 37.9 95 2.5 36.6 3.649 0.144
12:51 1013 29.91 843 24.89 3.3 37.9 95 2.5 36.5 3.683 0.145
12:52 1013 29.91 843 24.89 3.2 37.8 94 2.4 36.4 3.575 0.141
12:53 1013 29.91 843 24.89 3.2 37.7 95 2.4 36.3 3.53 0.139
12:54 1013 29.91 843 24.89 3.2 37.7 95 2.4 36.3 3.541 0.139
12:55 1013 29.91 843 24.89 3.2 37.7 95 2.4 36.4 3.524 0.139
12:56 1013 29.91 843 24.89 3.2 37.7 95 2.4 36.4 3.519 0.139
12:57 1013 29.91 843 24.89 3.2 37.7 96 2.5 36.6 3.564 0.14
12:58 1013 29.91 843 24.89 3.2 37.8 96 2.6 36.7 3.609 0.142
12:59 1013 29.91 843 24.89 3.2 37.8 95 2.6 36.6 3.626 0.143
13:00 1013 29.91 843 24.89 3.2 37.8 95 2.5 36.5 3.564 0.14
13:01 1013 29.91 843 24.89 3.2 37.7 94 2.3 36.2 3.536 0.139
13:02 1013 29.91 843 24.89 3.1 37.6 95 2.3 36.2 3.496 0.138
13:03 1014 29.94 843 24.89 3.1 37.6 95 2.4 36.3 3.451 0.136
13:04 1014 29.94 843 24.89 3.2 37.7 95 2.5 36.5 3.52 0.139
13:05 1014 29.94 843 24.89 3.2 37.7 95 2.5 36.4 3.52 0.139
13:06 1014 29.94 843 24.89 3.1 37.6 95 2.4 36.3 3.469 0.137
13:07 1014 29.94 843 24.89 3.1 37.6 95 2.3 36.2 3.48 0.137
13:08 1014 29.94 843 24.89 3.1 37.5 95 2.3 36.1 3.407 0.134
13:09 1014 29.94 843 24.89 3 37.3 95 2.2 36 3.322 0.131
13:10 1014 29.94 843 24.89 3 37.3 95 2.3 36.1 3.306 0.13
13:11 1014 29.94 843 24.89 3 37.3 96 2.3 36.2 3.391 0.134
13:12 1014 29.94 843 24.89 3 37.4 96 2.4 36.3 3.346 0.132
13:13 1014 29.94 843 24.89 3 37.3 96 2.3 36.2 3.347 0.132
13:14 1014 29.94 843 24.89 2.9 37.2 95 2.2 36 3.296 0.13
13:15 1014 29.94 843 24.89 2.9 37.1 95 2.2 35.9 3.223 0.127
13:16 1014 29.94 843 24.89 2.9 37.1 96 2.2 36 3.206 0.126
13:17 1014 29.94 843 24.89 2.9 37.1 95 2.2 35.9 3.212 0.126
13:18 1014 29.94 843 24.89 2.8 37.1 96 2.2 36 3.172 0.125
13:19 1014 29.94 843 24.89 2.9 37.1 96 2.2 36 3.224 0.127
13:20 1014 29.94 843 24.89 2.8 37.1 96 2.2 35.9 3.184 0.125
13:21 1014 29.94 843 24.89 2.8 37 96 2.2 35.9 3.173 0.125
13:22 1014 29.94 843 24.89 2.8 37 96 2.2 35.9 3.162 0.124
13:23 1014 29.94 843 24.89 2.8 37 96 2.2 35.9 3.145 0.124
13:24 1014 29.94 843 24.89 2.7 36.9 95 2 35.6 3.106 0.122
13:25 1014 29.94 843 24.89 2.7 36.9 95 2 35.7 3.068 0.121
13:26 1014 29.94 843 24.89 2.7 36.9 96 2.1 35.8 3.119 0.123
13:27 1014 29.94 843 24.89 2.7 36.9 96 2.1 35.8 3.125 0.123
13:28 1014 29.94 843 24.89 2.7 36.9 95 2 35.6 3.064 0.121
13:29 1014 29.94 843 24.89 2.7 36.8 95 1.9 35.5 3.064 0.121
13:30 1014 29.94 843 24.89 2.6 36.8 95 1.9 35.4 3.042 0.12
13:31 1014 29.94 843 24.89 2.6 36.7 95 1.9 35.5 2.957 0.116
13:32 1014 29.94 843 24.89 2.6 36.7 95 1.9 35.4 3.008 0.118
13:33 1014 29.94 843 24.89 2.5 36.6 95 1.8 35.3 2.918 0.115
13:34 1014 29.94 843 24.89 2.6 36.7 95 1.9 35.4 2.941 0.116
13:35 1014 29.94 843 24.89 2.6 36.6 95 1.9 35.4 2.941 0.116
13:36 1014 29.94 843 24.89 2.6 36.7 95 1.9 35.4 2.942 0.116
13:37 1014 29.94 843 24.89 2.6 36.6 95 1.9 35.4 2.925 0.115
13:38 1014 29.94 843 24.89 2.6 36.6 96 1.9 35.5 2.942 0.116
13:39 1014 29.94 843 24.89 2.6 36.7 96 2 35.6 2.982 0.117
13:40 1014 29.94 843 24.89 2.7 36.8 95 2 35.6 3.028 0.119
13:41 1014 29.94 843 24.89 2.7 36.9 95 2 35.5 3.056 0.12
13:42 1014 29.94 843 24.89 2.7 36.8 94 1.9 35.3 2.988 0.118
13:43 1014 29.94 843 24.89 2.7 36.8 94 1.8 35.3 3.017 0.119
13:44 1014 29.94 843 24.89 2.7 36.8 93 1.7 35 2.977 0.117
13:45 1014 29.94 844 24.92 2.7 36.8 93 1.7 35 2.949 0.116
13:46 1014 29.94 844 24.92 2.6 36.7 94 1.7 35.1 2.961 0.117
13:47 1014 29.94 844 24.92 2.7 36.8 93 1.7 35 2.972 0.117
13:48 1014 29.94 844 24.92 2.6 36.7 94 1.7 35 2.961 0.117
13:49 1014 29.94 844 24.92 2.7 36.8 94 1.8 35.2 2.995 0.118
13:50 1014 29.94 844 24.92 2.7 36.9 94 1.8 35.2 3.006 0.118
13:51 1014 29.94 844 24.92 2.7 36.9 94 1.8 35.2 3.046 0.12
13:52 1014 29.94 844 24.92 2.7 36.9 94 1.8 35.3 3.052 0.12
13:53 1015 29.97 844 24.92 2.7 36.9 95 2 35.6 3.103 0.122
13:54 1015 29.97 844 24.92 2.7 36.9 94 1.9 35.5 3.148 0.124
13:55 1015 29.97 844 24.92 2.8 37 95 2 35.6 3.137 0.124
13:56 1015 29.97 844 24.92 2.8 37 95 2 35.6 3.171 0.125
13:57 1015 29.97 844 24.92 2.8 37 95 2 35.6 3.165 0.125
13:58 1015 29.97 844 24.92 2.8 37 95 2 35.6 3.154 0.124
13:59 1015 29.97 844 24.92 2.8 37 95 2 35.6 3.131 0.123
14:00 1015 29.97 844 24.92 2.8 37 94 2 35.5 3.143 0.124
14:01 1015 29.97 844 24.92 2.8 37 94 1.9 35.4 3.137 0.124
14:02 1015 29.97 844 24.92 2.7 36.9 94 1.8 35.3 3.08 0.121
14:03 1015 29.97 844 24.92 2.7 36.9 95 2 35.6 3.12 0.123
14:04 1015 29.97 844 24.92 2.7 36.9 95 2 35.6 3.103 0.122
14:05 1015 29.97 844 24.92 2.8 37.1 95 2.1 35.8 3.154 0.124
14:06 1015 29.97 844 24.92 2.9 37.2 95 2.2 35.9 3.256 0.128
14:07 1015 29.97 844 24.92 2.8 37.1 95 2.1 35.7 3.216 0.127
14:08 1015 29.97 844 24.92 2.8 37.1 95 2.1 35.8 3.177 0.125
14:09 1015 29.97 844 24.92 2.8 37.1 95 2.1 35.8 3.194 0.126
14:10 1015 29.97 844 24.92 2.8 37.1 95 2 35.6 3.211 0.126
14:11 1015 29.97 844 24.92 2.8 37.1 93 1.9 35.3 3.154 0.124
14:12 1015 29.97 844 24.92 2.9 37.2 94 2.1 35.7 3.205 0.126
14:13 1015 29.97 844 24.92 2.9 37.3 94 2.1 35.8 3.313 0.13
14:14 1015 29.97 844 24.92 3 37.4 94 2.1 35.7 3.324 0.131
14:15 1015 29.97 844 24.92 3 37.4 94 2.1 35.8 3.364 0.132
14:16 1015 29.97 844 24.92 3 37.3 94 2 35.7 3.341 0.132
14:17 1015 29.97 844 24.92 2.9 37.3 94 2.1 35.7 3.268 0.129
14:18 1015 29.97 844 24.92 2.9 37.3 95 2.2 35.9 3.279 0.129
14:19 1015 29.97 844 24.92 2.9 37.3 95 2.2 35.9 3.296 0.13
14:20 1015 29.97 844 24.92 2.9 37.3 95 2.2 36 3.307 0.13
14:21 1015 29.97 844 24.92 2.9 37.3 94 2.1 35.8 3.296 0.13
14:22 1015 29.97 844 24.92 2.9 37.2 94 2 35.6 3.256 0.128
14:23 1015 29.97 844 24.92 2.9 37.2 95 2.1 35.8 3.217 0.127
14:24 1015 29.97 844 24.92 2.9 37.1 94 2 35.6 3.217 0.127
14:25 1015 29.97 844 24.92 2.8 37.1 94 2 35.6 3.194 0.126
14:26 1015 29.97 844 24.92 2.9 37.1 94 2 35.6 3.228 0.127
14:27 1015 29.97 844 24.92 2.8 37 94 1.9 35.4 3.126 0.123
14:28 1015 29.97 844 24.92 2.8 37 94 1.9 35.5 3.143 0.124
14:29 1015 29.97 844 24.92 2.8 37.1 95 2.1 35.7 3.16 0.124
14:30 1015 29.97 844 24.92 2.8 37.1 95 2 35.7 3.188 0.126
14:31 1015 29.97 844 24.92 2.8 37.1 94 1.9 35.5 3.211 0.126
14:32 1015 29.97 844 24.92 2.8 37.1 95 2 35.7 3.205 0.126
14:33 1015 29.97 844 24.92 2.8 37.1 94 2 35.6 3.194 0.126
14:34 1015 29.97 844 24.92 2.8 37.1 94 1.9 35.4 3.183 0.125
14:35 1015 29.97 844 24.92 2.8 37 93 1.7 35.1 3.143 0.124
14:36 1015 29.97 844 24.92 2.8 37 93 1.7 35.1 3.064 0.121
14:37 1015 29.97 844 24.92 2.7 36.9 93 1.7 35.1 3.07 0.121
14:38 1015 29.97 844 24.92 2.7 36.9 94 1.8 35.3 3.087 0.122
14:39 1015 29.97 844 24.92 2.7 36.9 94 1.8 35.2 3.053 0.12
14:40 1015 29.97 844 24.92 2.7 36.9 93 1.7 35.1 3.03 0.119
14:41 1015 29.97 844 24.92 2.7 36.9 94 1.8 35.3 3.058 0.12
14:42 1015 29.97 844 24.92 2.8 37 93 1.8 35.2 3.121 0.123
14:43 1015 29.97 844 24.92 2.8 37 93 1.8 35.2 3.126 0.123
14:44 1015 29.97 844 24.92 2.8 37.1 94 2 35.6 3.2 0.126
14:45 1015 29.97 844 24.92 2.9 37.1 93 1.9 35.3 3.29 0.13
14:46 1015 29.97 844 24.92 2.9 37.2 93 1.9 35.4 3.234 0.127
14:47 1015 29.97 844 24.92 2.9 37.2 93 1.9 35.4 3.217 0.127
14:48 1015 29.97 844 24.92 2.8 37.1 92 1.7 35.1 3.194 0.126
14:49 1015 29.97 844 24.92 2.8 37.1 94 2 35.5 3.205 0.126
14:50 1015 29.97 844 24.92 2.8 37.1 93 1.8 35.3 3.222 0.127
14:51 1015 29.97 844 24.92 2.8 37 93 1.8 35.2 3.115 0.123
14:52 1015 29.97 844 24.92 2.8 37 94 1.9 35.4 3.121 0.123
14:53 1015 29.97 844 24.92 2.7 36.9 94 1.9 35.5 3.132 0.123
14:54 1015 29.97 844 24.92 2.7 36.9 94 1.9 35.4 3.098 0.122
14:55 1015 29.97 844 24.92 2.7 36.9 94 1.9 35.3 3.087 0.122
14:56 1015 29.97 844 24.92 2.6 36.7 94 1.8 35.3 3.036 0.12
14:57 1015 29.97 845 24.95 2.6 36.6 93 1.6 34.9 2.94 0.116
14:58 1015 29.97 845 24.95 2.4 36.3 94 1.5 34.7 2.764 0.109
14:59 1015 29.97 845 24.95 2.3 36.2 95 1.5 34.8 2.759 0.109
15:00 1015 29.97 845 24.95 2.3 36.2 94 1.5 34.8 2.73 0.107
15:01 1015 29.97 844 24.92 2.3 36.1 95 1.6 34.8 2.77 0.109
15:02 1015 29.97 844 24.92 2.3 36.1 95 1.5 34.7 2.753 0.108
15:03 1015 29.97 844 24.92 2.3 36.1 95 1.5 34.8 2.685 0.106
15:04 1015 29.97 844 24.92 2.3 36.1 95 1.5 34.7 2.679 0.105
15:05 1015 29.97 845 24.95 2.2 36 94 1.4 34.5 2.651 0.104
15:06 1015 29.97 845 24.95 2.2 36 95 1.5 34.7 2.634 0.104
15:07 1015 29.97 845 24.95 2.3 36.1 96 1.7 35 2.691 0.106
15:08 1015 29.97 845 24.95 2.3 36.2 95 1.6 34.9 2.77 0.109
15:09 1015 29.97 845 24.95 2.3 36.2 95 1.7 35 2.736 0.108
15:10 1015 29.97 845 24.95 2.4 36.4 96 1.8 35.3 2.787 0.11
15:11 1015 29.97 845 24.95 2.4 36.4 96 1.8 35.2 2.849 0.112
15:12 1015 29.97 845 24.95 2.5 36.4 96 1.8 35.3 2.883 0.114
15:13 1016 30 845 24.95 2.5 36.4 95 1.7 35.1 2.872 0.113
15:14 1016 30 845 24.95 2.4 36.4 95 1.7 35 2.877 0.113
15:15 1016 30 845 24.95 2.5 36.4 94 1.6 34.9 2.787 0.11
15:16 1016 30 845 24.95 2.4 36.4 94 1.6 34.8 2.804 0.11
15:17 1016 30 845 24.95 2.4 36.4 95 1.7 35 2.815 0.111
15:18 1016 30 845 24.95 2.5 36.5 95 1.8 35.3 2.843 0.112
15:19 1016 30 845 24.95 2.5 36.6 95 1.8 35.3 2.94 0.116
15:20 1016 30 845 24.95 2.6 36.6 95 1.8 35.3 2.979 0.117
15:21 1016 30 845 24.95 2.5 36.5 94 1.6 35 2.906 0.114
15:22 1016 30 845 24.95 2.5 36.5 95 1.7 35.1 2.809 0.111
15:23 1016 30 845 24.95 2.4 36.4 95 1.7 35 2.826 0.111
15:24 1016 30 845 24.95 2.4 36.3 95 1.6 34.9 2.798 0.11
15:25 1016 30 845 24.95 2.3 36.2 94 1.5 34.7 2.713 0.107
15:26 1016 30 845 24.95 2.3 36.1 95 1.5 34.7 2.645 0.104
15:27 1016 30 845 24.95 2.2 35.9 95 1.4 34.5 2.6 0.102
15:28 1016 30 845 24.95 2.1 35.8 95 1.4 34.5 2.493 0.098
15:29 1016 30 845 24.95 2.1 35.7 95 1.4 34.6 2.487 0.098
15:30 1016 30 845 24.95 2.1 35.7 95 1.3 34.4 2.487 0.098
15:31 1016 30 845 24.95 1.9 35.5 95 1.2 34.2 2.346 0.092
15:32 1016 30 845 24.95 1.9 35.4 95 1.1 34.1 2.244 0.088
15:33 1016 30 845 24.95 1.8 35.2 95 1.1 33.9 2.153 0.085
15:34 1016 30 845 24.95 1.7 35.1 95 1 33.8 2.085 0.082
15:35 1016 30 845 24.95 1.7 35 96 1.1 33.9 2.023 0.08
15:36 1016 30 845 24.95 1.7 35 95 1 33.8 2.063 0.081
15:37 1016 30 845 24.95 1.6 34.9 95 0.9 33.6 1.961 0.077
15:38 1016 30 845 24.95 1.5 34.8 96 0.9 33.6 1.938 0.076
15:39 1016 30 845 24.95 1.5 34.7 96 0.9 33.6 1.899 0.075
15:40 1016 30 845 24.95 1.5 34.6 96 0.8 33.5 1.853 0.073
15:41 1016 30 845 24.95 1.4 34.5 96 0.8 33.4 1.853 0.073
15:42 1016 30 845 24.95 1.4 34.5 96 0.8 33.5 1.774 0.07
15:43 1016 30 845 24.95 1.4 34.4 96 0.8 33.5 1.791 0.071
15:44 1016 30 845 24.95 1.3 34.3 96 0.7 33.3 1.723 0.068
15:45 1016 30 845 24.95 1.2 34.2 96 0.6 33.1 1.627 0.064
15:46 1016 30 845 24.95 1.1 34 96 0.6 33 1.531 0.06
15:47 1016 30 845 24.95 1.1 34 96 0.6 33.1 1.486 0.059
15:48 1016 30 845 24.95 1 33.9 96 0.5 32.9 1.486 0.059
15:49 1016 30 845 24.95 1 33.8 96 0.5 32.9 1.389 0.055
15:50 1016 30 845 24.95 1 33.7 96 0.5 32.8 1.395 0.055
15:51 1016 30 845 24.95 0.9 33.7 96 0.4 32.8 1.355 0.053
15:52 1016 30 845 24.95 0.9 33.6 97 0.4 32.7 1.339 0.053
15:53 1016 30 845 24.95 0.8 33.5 96 0.3 32.6 1.299 0.051
15:54 1016 30 845 24.95 0.8 33.4 96 0.2 32.4 1.169 0.046
15:55 1016 30 845 24.95 0.6 33.2 96 0.1 32.2 1.09 0.043
15:56 1016 30 845 24.95 0.6 33.1 97 0.1 32.2 1.039 0.041
15:57 1016 30 845 24.95 0.5 32.9 97 0 32.1 .926 0.036
15:58 1016 30 845 24.95 0.4 32.8 97 -0 31.9 .886 0.035
15:59 1016 30 845 24.95 0.4 32.6 97 -0.1 31.8 .711 0.028
16:00 1016 30 845 24.95 0.3 32.5 97 -0.2 31.6 .648 0.026
16:01 1016 30 845 24.95 0.2 32.3 97 -0.3 31.5 .603 0.024
16:02 1016 30 845 24.95 0.1 32.2 97 -0.3 31.4 .546 0.021
16:03 1016 30 845 24.95 0.1 32.1 97 -0.4 31.4 .423 0.017
16:04 1016 30 845 24.95 0 32 97 -0.4 31.3 .423 0.017
16:05 1016 30 845 24.95 -0 31.9 97 -0.4 31.2 .378 0.015
16:06 1016 30 845 24.95 -0.1 31.9 97 -0.5 31.2 .328 0.013
16:07 1016 30 845 24.95 -0.1 31.8 97 -0.5 31.1 .306 0.012
16:08 1016 30 845 24.95 -0.2 31.7 97 -0.5 31 .244 0.01
16:09 1016 30 845 24.95 -0.2 31.7 97 -0.5 31 .261 0.01
16:10 1016 30 845 24.95 -0.2 31.6 97 -0.6 31 .233 0.009
16:11 1016 30 845 24.95 -0.2 31.6 98 -0.6 31 .188 0.007
16:12 1016 30 845 24.95 -0.2 31.6 98 -0.6 31 .166 0.007
16:13 1016 30 846 24.98 -0.2 31.6 98 -0.6 31 .149 0.006
16:14 1016 30 845 24.95 -0.3 31.5 98 -0.6 30.9 .143 0.006
16:15 1016 30 845 24.95 -0.3 31.5 98 -0.6 31 .144 0.006
16:16 1016 30 846 24.98 -0.3 31.5 98 -0.6 30.9 .149 0.006
16:17 1016 30 846 24.98 -0.3 31.5 98 -0.6 30.9 .133 0.005
16:18 1016 30 846 24.98 -0.3 31.5 98 -0.6 30.9 .151 0.006
16:19 1016 30 846 24.98 -0.3 31.5 98 -0.6 31 .185 0.007
16:20 1016 30 846 24.98 -0.2 31.6 98 -0.5 31 .203 0.008
16:21 1016 30 846 24.98 -0.3 31.5 98 -0.6 31 .187 0.007
16:22 1016 30 846 24.98 -0.3 31.5 98 -0.5 31 .175 0.007
16:23 1016 30 846 24.98 -0.3 31.5 98 -0.5 31 .17 0.007
16:24 1016 30 846 24.98 -0.2 31.6 98 -0.5 31.1 .188 0.007
16:25 1016 30 846 24.98 -0.3 31.5 98 -0.5 31.1 .205 0.008
16:26 1016 30 846 24.98 -0.2 31.6 98 -0.5 31.1 .217 0.009
16:27 1016 30 846 24.98 -0.2 31.6 98 -0.5 31.1 .24 0.009
16:28 1016 30 846 24.98 -0.2 31.6 98 -0.5 31.1 .251 0.01
16:29 1016 30 846 24.98 -0.2 31.7 98 -0.4 31.3 .234 0.009
16:30 1016 30 846 24.98 -0.1 31.8 98 -0.4 31.3 .303 0.012
16:31 1016 30 846 24.98 -0.1 31.7 98 -0.4 31.3 .297 0.012
16:32 1016 30 846 24.98 -0.1 31.8 98 -0.4 31.3 .297 0.012
16:33 1016 30 846 24.98 -0.1 31.8 98 -0.3 31.4 .326 0.013
16:34 1016 30 846 24.98 -0.1 31.9 98 -0.3 31.5 .337 0.013
16:35 1016 30 846 24.98 -0.1 31.9 98 -0.3 31.5 .326 0.013
16:36 1016 30 846 24.98 -0 32 98 -0.3 31.5 .394 0.016
16:37 1016 30 846 24.98 -0 32 98 -0.2 31.6 .434 0.017
16:38 1016 30 846 24.98 0.1 32.1 98 -0.2 31.7 .468 0.018
16:39 1016 30 846 24.98 0.1 32.2 98 -0.2 31.7 .519 0.02
16:40 1016 30 846 24.98 0.1 32.3 98 -0.1 31.8 .559 0.022
16:41 1016 30 846 24.98 0.2 32.3 98 -0.1 31.8 .582 0.023
16:42 1016 30 846 24.98 0.2 32.4 98 -0 32 .604 0.024
16:43 1016 30 846 24.98 0.2 32.4 98 -0 31.9 .655 0.026
16:44 1016 30 846 24.98 0.2 32.4 98 -0 32 .678 0.027
16:45 1016 30 846 24.98 0.3 32.5 98 0 32 .672 0.026
16:46 1016 30 846 24.98 0.3 32.5 98 0 32 .655 0.026
16:47 1016 30 846 24.98 0.3 32.5 98 -0 32 .69 0.027
16:48 1016 30 846 24.98 0.2 32.4 98 -0.1 31.9 .656 0.026
16:49 1016 30 846 24.98 0.2 32.4 98 -0 31.9 .656 0.026
16:50 1016 30 846 24.98 0.2 32.4 98 -0.1 31.9 .656 0.026
16:51 1016 30 846 24.98 0.2 32.3 98 -0.1 31.8 .599 0.024
16:52 1016 30 846 24.98 0.2 32.3 98 -0.1 31.7 .605 0.024
16:53 1016 30 846 24.98 0.2 32.3 98 -0.1 31.8 .616 0.024
16:54 1017 30.03 846 24.98 0.1 32.3 98 -0.1 31.7 .605 0.024
16:55 1017 30.03 846 24.98 0.2 32.3 98 -0.1 31.7 .56 0.022
16:56 1017 30.03 846 24.98 0.1 32.2 98 -0.2 31.7 .571 0.022
16:57 1017 30.03 846 24.98 0.1 32.2 98 -0.1 31.7 .582 0.023
16:58 1017 30.03 846 24.98 0.1 32.2 98 -0.2 31.7 .549 0.022
16:59 1017 30.03 846 24.98 0.1 32.2 98 -0.1 31.7 .566 0.022
17:00 1017 30.03 846 24.98 0.1 32.2 98 -0.1 31.8 .549 0.022
17:01 1017 30.03 846 24.98 0.1 32.2 98 -0.2 31.7 .532 0.021
17:02 1017 30.03 846 24.98 0.1 32.2 98 -0.1 31.7 .571 0.022
17:03 1017 30.03 846 24.98 0.1 32.2 98 -0.1 31.8 .526 0.021
17:04 1017 30.03 846 24.98 0.1 32.2 98 -0.1 31.8 .571 0.022
17:05 1017 30.03 846 24.98 0.2 32.3 98 -0.1 31.8 .583 0.023
17:06 1017 30.03 846 24.98 0.1 32.2 98 -0.1 31.8 .6 0.024
17:07 1017 30.03 846 24.98 0.2 32.3 98 -0.1 31.9 .583 0.023
17:08 1017 30.03 846 24.98 0.2 32.3 98 -0.1 31.8 .532 0.021
17:09 1017 30.03 846 24.98 0.2 32.3 98 -0.1 31.8 .537 0.021
17:10 1017 30.03 846 24.98 0.2 32.3 98 -0.1 31.9 .583 0.023
17:11 1017 30.03 846 24.98 0.1 32.2 98 -0.1 31.8 .577 0.023
17:12 1017 30.03 846 24.98 0.2 32.3 98 -0.1 31.8 .566 0.022
17:13 1017 30.03 846 24.98 0.2 32.3 98 -0.1 31.8 .571 0.022
17:14 1017 30.03 846 24.98 0.1 32.3 98 -0.1 31.8 .577 0.023
17:15 1017 30.03 846 24.98 0.2 32.3 98 -0.1 31.9 .594 0.023
17:16 1017 30.03 846 24.98 0.2 32.3 98 -0.1 31.9 .617 0.024
17:17 1017 30.03 846 24.98 0.2 32.4 98 -0.1 31.9 .668 0.026
17:18 1017 30.03 846 24.98 0.2 32.3 98 -0.1 31.9 .662 0.026
17:19 1017 30.03 846 24.98 0.2 32.4 98 -0 31.9 .651 0.026
17:20 1017 30.03 846 24.98 0.3 32.5 98 0 32.1 .747 0.029
17:21 1017 30.03 846 24.98 0.3 32.6 98 0.1 32.1 .69 0.027
17:22 1017 30.03 846 24.98 0.3 32.6 98 0.1 32.2 .753 0.03
17:23 1016 30 846 24.98 0.4 32.7 98 0.1 32.2 .804 0.032
17:24 1016 30 846 24.98 0.4 32.7 98 0.1 32.2 .815 0.032
17:25 1017 30.03 846 24.98 0.4 32.7 98 0.1 32.2 .821 0.032
17:26 1016 30 846 24.98 0.4 32.8 98 0.2 32.3 .86 0.034
17:27 1017 30.03 846 24.98 0.5 32.9 98 0.2 32.4 .86 0.034
17:28 1016 30 846 24.98 0.5 32.9 98 0.2 32.4 .877 0.035
17:29 1016 30 846 24.98 0.5 32.9 98 0.2 32.4 .917 0.036
17:30 1016 30 846 24.98 0.5 33 98 0.3 32.5 .962 0.038
17:31 1016 30 846 24.98 0.6 33 98 0.3 32.5 .928 0.037
17:32 1016 30 846 24.98 0.6 33.1 98 0.3 32.5 .985 0.039
17:33 1016 30 846 24.98 0.6 33.2 98 0.3 32.6 1.024 0.04
17:34 1016 30 846 24.98 0.6 33.1 98 0.3 32.6 1.013 0.04
17:35 1016 30 846 24.98 0.6 33.2 98 0.3 32.6 1.013 0.04
17:36 1016 30 846 24.98 0.7 33.2 98 0.3 32.6 1.024 0.04
17:37 1016 30 846 24.98 0.7 33.3 98 0.4 32.7 1.092 0.043
17:38 1016 30 846 24.98 0.7 33.3 98 0.4 32.7 1.132 0.045
17:39 1016 30 846 24.98 0.8 33.4 98 0.4 32.8 1.137 0.045
17:40 1016 30 846 24.98 0.8 33.4 98 0.4 32.7 1.166 0.046
17:41 1016 30 846 24.98 0.8 33.4 98 0.4 32.8 1.2 0.047
17:42 1016 30 846 24.98 0.9 33.5 97 0.5 32.9 1.234 0.049
17:43 1016 30 846 24.98 0.9 33.6 97 0.5 32.9 1.234 0.049
17:44 1016 30 846 24.98 0.9 33.6 97 0.5 32.9 1.262 0.05
17:45 1016 30 846 24.98 0.9 33.7 97 0.5 33 1.307 0.051
17:46 1016 30 846 24.98 1 33.8 97 0.6 33 1.296 0.051
17:47 1016 30 846 24.98 1 33.9 97 0.6 33.1 1.341 0.053
17:48 1016 30 846 24.98 1 33.8 97 0.6 33.1 1.364 0.054
17:49 1016 30 846 24.98 1.1 33.9 97 0.6 33.1 1.42 0.056
17:50 1016 30 846 24.98 1.1 33.9 97 0.7 33.2 1.42 0.056
17:51 1016 30 846 24.98 1.1 34 97 0.7 33.2 1.466 0.058
17:52 1016 30 846 24.98 1.1 34 97 0.7 33.2 1.477 0.058
17:53 1016 30 846 24.98 1.2 34.1 97 0.7 33.3 1.494 0.059
17:54 1016 30 846 24.98 1.2 34.1 97 0.7 33.2 1.5 0.059
17:55 1016 30 846 24.98 1.2 34.1 97 0.7 33.2 1.528 0.06
17:56 1016 30 846 24.98 1.2 34.1 96 0.7 33.2 1.528 0.06
17:57 1016 30 846 24.98 1.2 34.2 96 0.7 33.2 1.545 0.061
17:58 1016 30 846 24.98 1.2 34.2 96 0.7 33.3 1.556 0.061
17:59 1016 30 846 24.98 1.3 34.3 96 0.7 33.3 1.579 0.062
18:01 1016 30 846 24.98 1.3 34.3 96 0.7 33.3 1.624 0.064
18:02 1016 30 846 24.98 1.3 34.3 96 0.8 33.4 1.658 0.065
18:03 1016 30 846 24.98 1.3 34.3 96 0.8 33.4 1.658 0.065
18:04 1016 30 846 24.98 1.3 34.4 96 0.8 33.4 1.652 0.065
18:05 1016 30 846 24.98 1.4 34.5 96 0.8 33.5 1.692 0.067
18:06 1016 30 846 24.98 1.4 34.5 96 0.8 33.5 1.669 0.066
18:07 1016 30 846 24.98 1.4 34.5 96 0.9 33.6 1.749 0.069
18:08 1016 30 846 24.98 1.4 34.6 96 0.9 33.6 1.777 0.07
18:09 1016 30 846 24.98 1.5 34.7 96 0.9 33.6 1.822 0.072
18:10 1016 30 846 24.98 1.5 34.7 96 0.9 33.7 1.805 0.071
18:11 1016 30 846 24.98 1.5 34.8 96 1 33.7 1.839 0.072
18:12 1016 30 846 24.98 1.6 34.8 96 1 33.8 1.873 0.074
18:13 1016 30 846 24.98 1.6 34.8 96 1 33.7 1.941 0.076
18:14 1016 30 846 24.98 1.6 34.9 96 1 33.8 1.93 0.076
18:15 1016 30 846 24.98 1.6 34.9 96 1 33.8 1.998 0.079
18:16 1016 30 846 24.98 1.7 35 96 1.1 33.9 1.964 0.077
18:17 1016 30 846 24.98 1.7 35 95 1 33.8 2.026 0.08
18:18 1016 30 846 24.98 1.7 35 95 1 33.8 2.032 0.08
18:19 1016 30 846 24.98 1.7 35.1 95 1 33.8 2.066 0.081
18:20 1016 30 846 24.98 1.7 35.1 95 1 33.9 2.066 0.081
18:21 1016 30 846 24.98 1.8 35.2 95 1.1 33.9 2.134 0.084
18:22 1016 30 846 24.98 1.8 35.3 95 1.1 34 2.207 0.087
18:23 1016 30 846 24.98 1.9 35.4 95 1.2 34.1 2.235 0.088
18:24 1016 30 846 24.98 1.9 35.5 95 1.2 34.2 2.275 0.09
18:25 1016 30 846 24.98 2 35.6 95 1.2 34.2 2.315 0.091
18:26 1016 30 846 24.98 2 35.6 95 1.3 34.3 2.337 0.092
18:27 1016 30 846 24.98 2.1 35.7 95 1.3 34.4 2.4 0.094
18:28 1016 30 846 24.98 2.1 35.8 94 1.3 34.3 2.433 0.096
18:29 1016 30 846 24.98 2.1 35.7 94 1.2 34.1 2.4 0.094
18:30 1016 30 846 24.98 2.1 35.8 94 1.2 34.2 2.394 0.094
18:31 1016 30 846 24.98 2.1 35.8 94 1.2 34.2 2.456 0.097
18:32 1016 30 846 24.98 2.2 35.9 94 1.2 34.2 2.45 0.096
18:33 1016 30 846 24.98 2.2 35.9 94 1.3 34.3 2.501 0.098
18:34 1016 30 846 24.98 2.2 35.9 93 1.2 34.2 2.49 0.098
18:35 1016 30 846 24.98 2.2 35.9 93 1.2 34.1 2.507 0.099
18:36 1016 30 846 24.98 2.2 35.9 93 1.1 34 2.507 0.099
18:37 1016 30 846 24.98 2.2 36 93 1.2 34.2 2.518 0.099
18:38 1016 30 846 24.98 2.2 36 93 1.2 34.2 2.552 0.1
18:39 1016 30 846 24.98 2.2 36 93 1.3 34.3 2.558 0.101
18:40 1016 30 846 24.98 2.2 36 93 1.2 34.2 2.581 0.102
18:41 1016 30 846 24.98 2.2 36 93 1.1 34.1 2.575 0.101
18:42 1016 30 846 24.98 2.3 36.1 93 1.2 34.1 2.564 0.101
18:43 1016 30 846 24.98 2.3 36.1 92 1.2 34.1 2.581 0.102
18:44 1016 30 846 24.98 2.3 36.1 93 1.2 34.2 2.575 0.101
18:45 1016 30 846 24.98 2.3 36.1 93 1.2 34.2 2.609 0.103
18:46 1016 30 846 24.98 2.3 36.1 93 1.3 34.3 2.592 0.102
18:47 1016 30 846 24.98 2.3 36.1 93 1.3 34.3 2.654 0.104
18:48 1016 30 846 24.98 2.3 36.2 93 1.4 34.5 2.666 0.105
18:49 1016 30 846 24.98 2.3 36.2 94 1.4 34.5 2.694 0.106
18:50 1016 30 846 24.98 2.3 36.2 94 1.4 34.5 2.666 0.105
18:51 1016 30 846 24.98 2.3 36.2 93 1.4 34.4 2.699 0.106
18:52 1016 30 846 24.98 2.3 36.2 93 1.3 34.4 2.671 0.105
18:53 1016 30 846 24.98 2.3 36.2 92 1.2 34.1 2.654 0.104
18:54 1016 30 846 24.98 2.4 36.3 92 1.2 34.2 2.654 0.104
18:55 1016 30 846 24.98 2.4 36.3 92 1.2 34.2 2.694 0.106
18:56 1016 30 846 24.98 2.4 36.2 92 1.2 34.1 2.66 0.105
18:57 1016 30 846 24.98 2.4 36.3 92 1.3 34.3 2.694 0.106
18:58 1016 30 846 24.98 2.4 36.4 92 1.2 34.2 2.75 0.108
18:59 1016 30 846 24.98 2.4 36.4 92 1.3 34.3 2.756 0.109
19:00 1016 30 846 24.98 2.4 36.3 92 1.2 34.2 2.711 0.107
19:01 1016 30 846 24.98 2.4 36.3 92 1.2 34.1 2.705 0.106
19:02 1016 30 846 24.98 2.4 36.4 92 1.2 34.2 2.767 0.109
19:03 1016 30 846 24.98 2.4 36.3 92 1.2 34.2 2.739 0.108
19:04 1016 30 846 24.98 2.4 36.4 93 1.3 34.4 2.75 0.108
19:05 1016 30 846 24.98 2.4 36.4 93 1.4 34.5 2.824 0.111
19:06 1016 30 846 24.98 2.4 36.4 93 1.4 34.4 2.784 0.11
19:07 1016 30 846 24.98 2.4 36.3 93 1.3 34.4 2.79 0.11
19:08 1016 30 846 24.98 2.4 36.3 92 1.2 34.2 2.739 0.108
19:09 1016 30 846 24.98 2.4 36.3 92 1.2 34.2 2.739 0.108
19:10 1016 30 846 24.98 2.4 36.4 92 1.2 34.2 2.733 0.108
19:11 1016 30 846 24.98 2.4 36.4 92 1.2 34.2 2.762 0.109
19:12 1016 30 846 24.98 2.4 36.4 92 1.2 34.2 2.773 0.109
19:13 1016 30 846 24.98 2.5 36.4 92 1.3 34.4 2.796 0.11
19:14 1016 30 846 24.98 2.5 36.4 92 1.3 34.3 2.807 0.111
19:15 1016 30 846 24.98 2.5 36.5 92 1.3 34.4 2.779 0.109
19:16 1016 30 846 24.98 2.5 36.5 93 1.4 34.5 2.835 0.112
19:17 1016 30 846 24.98 2.5 36.5 93 1.4 34.6 2.841 0.112
19:18 1016 30 846 24.98 2.5 36.5 93 1.4 34.5 2.83 0.111
19:19 1016 30 846 24.98 2.5 36.5 92 1.3 34.4 2.813 0.111
19:20 1016 30 846 24.98 2.5 36.5 92 1.4 34.5 2.847 0.112
19:21 1016 30 846 24.98 2.5 36.6 92 1.4 34.5 2.824 0.111
19:22 1016 30 846 24.98 2.5 36.5 91 1.3 34.3 2.847 0.112
19:23 1016 30 846 24.98 2.5 36.5 92 1.3 34.3 2.79 0.11
19:24 1016 30 846 24.98 2.5 36.5 92 1.3 34.4 2.841 0.112
19:25 1016 30 846 24.98 2.5 36.6 92 1.4 34.5 2.864 0.113
19:26 1016 30 846 24.98 2.5 36.5 91 1.2 34.2 2.841 0.112
19:27 1016 30 846 24.98 2.5 36.5 91 1.2 34.1 2.824 0.111
19:28 1016 30 846 24.98 2.5 36.5 90 1.1 34 2.818 0.111
19:29 1016 30 846 24.98 2.5 36.5 90 1.1 33.9 2.813 0.111
19:30 1016 30 846 24.98 2.5 36.5 91 1.2 34.1 2.858 0.113
19:31 1016 30 846 24.98 2.6 36.6 90 1.1 34 2.83 0.111
19:32 1016 30 846 24.98 2.5 36.6 90 1.1 34 2.835 0.112
19:33 1016 30 846 24.98 2.5 36.6 90 1.1 34 2.841 0.112
19:34 1016 30 846 24.98 2.6 36.6 90 1.1 34 2.898 0.114
19:35 1016 30 846 24.98 2.6 36.6 90 1.2 34.1 2.909 0.115
19:36 1016 30 846 24.98 2.6 36.7 91 1.2 34.2 2.898 0.114
19:37 1016 30 846 24.98 2.6 36.7 90 1.1 34 2.965 0.117
19:38 1017 30.03 846 24.98 2.6 36.7 90 1.2 34.1 2.92 0.115
19:39 1017 30.03 846 24.98 2.6 36.7 90 1.1 34 2.937 0.116
19:40 1017 30.03 846 24.98 2.6 36.8 89 1.1 34 2.926 0.115
19:41 1017 30.03 846 24.98 2.6 36.8 90 1.1 34.1 2.96 0.117
19:42 1017 30.03 846 24.98 2.7 36.8 90 1.1 34 2.971 0.117
19:43 1017 30.03 846 24.98 2.7 36.8 90 1.1 34 2.994 0.118
19:44 1017 30.03 846 24.98 2.7 36.8 90 1.1 34.1 2.982 0.117
19:45 1017 30.03 846 24.98 2.7 36.9 90 1.3 34.3 3.028 0.119
19:46 1017 30.03 846 24.98 2.7 36.9 90 1.2 34.2 3.033 0.119
19:47 1017 30.03 846 24.98 2.7 36.9 90 1.2 34.2 3.016 0.119
19:48 1017 30.03 846 24.98 2.7 36.9 90 1.3 34.4 3.067 0.121
19:49 1017 30.03 846 24.98 2.7 36.9 90 1.3 34.3 3.045 0.12
19:50 1017 30.03 846 24.98 2.7 36.9 90 1.3 34.3 3.067 0.121
19:51 1017 30.03 846 24.98 2.7 36.9 90 1.3 34.4 3.039 0.12
19:52 1017 30.03 846 24.98 2.7 36.9 91 1.4 34.6 3.05 0.12
19:53 1017 30.03 846 24.98 2.8 37 90 1.3 34.4 3.073 0.121
19:54 1017 30.03 846 24.98 2.8 37 90 1.3 34.3 3.067 0.121
19:55 1017 30.03 846 24.98 2.7 36.9 90 1.2 34.2 3.045 0.12
19:56 1017 30.03 846 24.98 2.8 37 91 1.4 34.6 3.067 0.121
19:57 1017 30.03 846 24.98 2.8 37 91 1.4 34.6 3.124 0.123
19:58 1017 30.03 846 24.98 2.8 37 91 1.4 34.5 3.147 0.124
19:59 1017 30.03 846 24.98 2.8 37.1 91 1.5 34.7 3.164 0.125
20:00 1017 30.03 846 24.98 2.8 37.1 90 1.4 34.5 3.124 0.123
20:01 1017 30.03 846 24.98 2.8 37 91 1.4 34.5 3.107 0.122
20:02 1017 30.03 846 24.98 2.8 37.1 91 1.5 34.6 3.147 0.124
20:03 1017 30.03 846 24.98 2.8 37.1 91 1.5 34.8 3.186 0.125
20:04 1017 30.03 846 24.98 2.8 37.1 91 1.4 34.6 3.197 0.126
20:05 1017 30.03 846 24.98 2.8 37.1 91 1.5 34.8 3.197 0.126
20:06 1017 30.03 846 24.98 2.8 37.1 91 1.5 34.7 3.181 0.125
20:07 1017 30.03 846 24.98 2.8 37.1 90 1.3 34.4 3.158 0.124
20:08 1017 30.03 846 24.98 2.8 37 90 1.3 34.4 3.096 0.122
20:09 1017 30.03 846 24.98 2.8 37.1 90 1.3 34.4 3.164 0.125
20:10 1017 30.03 846 24.98 2.8 37.1 89 1.2 34.2 3.13 0.123
20:11 1017 30.03 846 24.98 2.8 37.1 90 1.3 34.4 3.073 0.121
20:12 1017 30.03 846 24.98 2.8 37.1 90 1.3 34.4 3.118 0.123
20:13 1017 30.03 846 24.98 2.8 37.1 90 1.3 34.4 3.124 0.123
20:14 1017 30.03 846 24.98 2.8 37.1 90 1.4 34.5 3.158 0.124
20:15 1017 30.03 846 24.98 2.8 37.1 89 1.3 34.3 3.107 0.122
20:16 1017 30.03 846 24.98 2.8 37.1 89 1.2 34.2 3.113 0.123
20:17 1017 30.03 846 24.98 2.8 37 90 1.3 34.4 3.13 0.123
20:18 1017 30.03 846 24.98 2.8 37 90 1.3 34.4 3.124 0.123
20:19 1017 30.03 846 24.98 2.8 37.1 91 1.4 34.6 3.141 0.124
20:20 1017 30.03 846 24.98 2.8 37 91 1.4 34.5 3.124 0.123
20:21 1017 30.03 846 24.98 2.8 37 90 1.3 34.4 3.135 0.123
20:22 1017 30.03 846 24.98 2.8 37.1 91 1.5 34.6 3.124 0.123
20:23 1017 30.03 846 24.98 2.8 37.1 91 1.5 34.6 3.107 0.122
20:24 1017 30.03 846 24.98 2.8 37.1 91 1.5 34.7 3.113 0.123
20:25 1017 30.03 846 24.98 2.8 37 92 1.5 34.8 3.181 0.125
20:26 1017 30.03 846 24.98 2.8 37.1 91 1.5 34.7 3.135 0.123
20:27 1017 30.03 846 24.98 2.8 37 91 1.5 34.6 3.13 0.123
20:28 1017 30.03 846 24.98 2.8 37 91 1.4 34.5 3.096 0.122
20:29 1017 30.03 846 24.98 2.8 37 91 1.5 34.6 3.13 0.123
20:30 1017 30.03 846 24.98 2.8 37 91 1.4 34.6 3.079 0.121
20:31 1017 30.03 846 24.98 2.8 37 91 1.5 34.6 3.13 0.123
20:32 1017 30.03 846 24.98 2.8 37 91 1.5 34.6 3.147 0.124
20:33 1017 30.03 846 24.98 2.8 37 90 1.3 34.4 3.105 0.122
20:34 1017 30.03 846 24.98 2.8 37 90 1.3 34.4 3.094 0.122
20:35 1017 30.03 846 24.98 2.8 37 91 1.4 34.5 3.094 0.122
20:36 1017 30.03 846 24.98 2.8 37 91 1.4 34.6 3.111 0.122
20:37 1017 30.03 846 24.98 2.8 37 91 1.4 34.6 3.134 0.123
20:38 1017 30.03 846 24.98 2.8 37 91 1.5 34.7 3.083 0.121
20:39 1017 30.03 846 24.98 2.8 37 91 1.5 34.7 3.123 0.123
20:40 1017 30.03 846 24.98 2.8 37 91 1.4 34.5 3.117 0.123
20:41 1017 30.03 846 24.98 2.8 37 91 1.4 34.5 3.1 0.122
20:42 1017 30.03 846 24.98 2.7 36.9 91 1.4 34.5 3.084 0.121
20:43 1017 30.03 846 24.98 2.7 36.9 91 1.4 34.5 3.072 0.121
20:44 1017 30.03 846 24.98 2.7 36.9 92 1.5 34.7 3.106 0.122
20:45 1017 30.03 846 24.98 2.7 36.9 92 1.5 34.7 3.101 0.122
20:46 1017 30.03 846 24.98 2.7 36.9 92 1.5 34.7 3.061 0.121
20:47 1017 30.03 846 24.98 2.7 36.8 92 1.5 34.6 3.095 0.122
20:48 1017 30.03 846 24.98 2.7 36.9 92 1.6 34.8 3.084 0.121
20:49 1017 30.03 846 24.98 2.7 36.9 92 1.6 34.8 3.118 0.123
20:50 1017 30.03 846 24.98 2.7 36.9 92 1.5 34.7 3.078 0.121
20:51 1017 30.03 846 24.98 2.7 36.8 92 1.5 34.7 3.073 0.121
20:52 1017 30.03 846 24.98 2.7 36.9 92 1.5 34.8 3.078 0.121
20:53 1017 30.03 846 24.98 2.8 37 92 1.6 35 3.135 0.123
20:54 1017 30.03 846 24.98 2.7 36.9 92 1.5 34.7 3.095 0.122
20:55 1017 30.03 846 24.98 2.7 36.9 92 1.5 34.8 3.073 0.121
20:56 1017 30.03 846 24.98 2.7 36.8 92 1.5 34.7 3.095 0.122
20:57 1017 30.03 846 24.98 2.7 36.9 92 1.5 34.7 3.033 0.119
20:58 1017 30.03 846 24.98 2.7 36.8 92 1.4 34.6 3.027 0.119
20:59 1017 30.03 846 24.98 2.7 36.8 91 1.4 34.5 3.016 0.119
21:00 1017 30.03 846 24.98 2.6 36.7 91 1.3 34.4 2.971 0.117
21:01 1017 30.03 846 24.98 2.6 36.8 92 1.4 34.6 2.965 0.117
21:02 1017 30.03 846 24.98 2.6 36.7 92 1.5 34.6 2.965 0.117
21:03 1017 30.03 846 24.98 2.6 36.7 92 1.5 34.7 2.948 0.116
21:04 1017 30.03 846 24.98 2.6 36.7 92 1.5 34.7 2.999 0.118
21:05 1017 30.03 846 24.98 2.6 36.7 93 1.6 34.8 2.999 0.118
21:06 1017 30.03 846 24.98 2.6 36.7 92 1.5 34.7 2.971 0.117
21:07 1017 30.03 846 24.98 2.6 36.7 92 1.5 34.7 2.988 0.118
21:08 1017 30.03 846 24.98 2.6 36.8 93 1.6 34.8 2.977 0.117
21:09 1017 30.03 846 24.98 2.7 36.8 93 1.6 34.9 3.011 0.119
21:10 1017 30.03 846 24.98 2.6 36.8 93 1.6 34.9 2.999 0.118
21:11 1017 30.03 846 24.98 2.6 36.7 93 1.6 34.8 2.981 0.117
21:12 1017 30.03 846 24.98 2.7 36.8 93 1.6 34.9 3.026 0.119
21:13 1017 30.03 846 24.98 2.7 36.8 93 1.7 35 2.981 0.117
21:14 1017 30.03 846 24.98 2.7 36.8 93 1.7 35 3.043 0.12
21:15 1017 30.03 846 24.98 2.7 36.8 94 1.7 35.1 3.015 0.119
21:16 1017 30.03 846 24.98 2.7 36.8 94 1.7 35.1 3.038 0.12
21:17 1017 30.03 846 24.98 2.7 36.8 93 1.7 35.1 2.998 0.118
21:18 1017 30.03 846 24.98 2.7 36.8 93 1.7 35 3.021 0.119
21:19 1017 30.03 846 24.98 2.7 36.8 93 1.7 35 3.015 0.119
21:20 1017 30.03 846 24.98 2.6 36.7 93 1.7 35 2.986 0.118
21:21 1017 30.03 846 24.98 2.6 36.7 93 1.7 35 2.963 0.117
21:22 1017 30.03 846 24.98 2.6 36.8 93 1.7 35 2.986 0.118
21:23 1017 30.03 846 24.98 2.7 36.8 93 1.7 35.1 2.986 0.118
21:24 1017 30.03 846 24.98 2.7 36.8 93 1.7 35 2.964 0.117
21:25 1017 30.03 846 24.98 2.6 36.7 93 1.6 34.9 2.947 0.116
21:26 1017 30.03 846 24.98 2.6 36.8 93 1.7 35 2.981 0.117
21:27 1017 30.03 846 24.98 2.6 36.8 94 1.7 35.1 2.97 0.117
21:28 1017 30.03 846 24.98 2.6 36.8 93 1.7 35 2.986 0.118
21:29 1017 30.03 846 24.98 2.6 36.7 93 1.6 34.9 2.929 0.115
21:30 1017 30.03 846 24.98 2.6 36.7 93 1.6 34.9 2.969 0.117
21:31 1017 30.03 846 24.98 2.6 36.7 93 1.6 34.9 2.946 0.116
21:32 1017 30.03 846 24.98 2.6 36.7 93 1.7 35 2.958 0.116
21:33 1017 30.03 846 24.98 2.6 36.7 93 1.6 34.9 2.969 0.117
21:34 1017 30.03 846 24.98 2.6 36.7 93 1.6 34.9 2.93 0.115
21:35 1017 30.03 846 24.98 2.6 36.8 93 1.7 35 2.913 0.115
21:36 1017 30.03 846 24.98 2.6 36.7 93 1.7 35 2.935 0.116
21:37 1017 30.03 846 24.98 2.6 36.8 93 1.7 35 2.947 0.116
21:38 1017 30.03 846 24.98 2.6 36.7 93 1.7 35 2.953 0.116
21:39 1017 30.03 846 24.98 2.6 36.8 93 1.7 35 2.941 0.116
21:40 1017 30.03 846 24.98 2.6 36.7 93 1.6 34.8 2.924 0.115
21:41 1017 30.03 846 24.98 2.7 36.8 93 1.6 34.9 2.912 0.115
21:42 1017 30.03 846 24.98 2.6 36.8 93 1.6 34.9 2.929 0.115
21:43 1017 30.03 846 24.98 2.6 36.7 93 1.5 34.7 2.952 0.116
21:44 1017 30.03 846 24.98 2.6 36.7 93 1.6 34.9 2.918 0.115
21:45 1017 30.03 846 24.98 2.6 36.7 93 1.6 34.9 2.924 0.115
21:46 1017 30.03 846 24.98 2.7 36.8 93 1.7 35 2.998 0.118
21:47 1017 30.03 846 24.98 2.7 36.8 93 1.7 35.1 3.009 0.118
21:48 1017 30.03 846 24.98 2.6 36.7 93 1.6 34.9 2.958 0.116
21:49 1017 30.03 846 24.98 2.7 36.8 93 1.7 35 2.97 0.117
21:50 1017 30.03 846 24.98 2.6 36.8 93 1.6 34.9 2.947 0.116
21:51 1017 30.03 846 24.98 2.6 36.8 93 1.6 34.9 2.942 0.116
21:52 1017 30.03 846 24.98 2.6 36.7 93 1.5 34.8 2.93 0.115
21:53 1017 30.03 846 24.98 2.6 36.7 93 1.6 34.8 2.964 0.117
21:54 1017 30.03 846 24.98 2.6 36.7 93 1.6 34.9 2.964 0.117
21:55 1017 30.03 846 24.98 2.6 36.7 93 1.6 34.9 2.987 0.118
21:56 1017 30.03 846 24.98 2.6 36.7 93 1.6 34.9 2.993 0.118
21:57 1017 30.03 846 24.98 2.6 36.7 93 1.6 34.9 2.976 0.117
21:58 1017 30.03 846 24.98 2.6 36.7 93 1.6 34.9 2.959 0.116
21:59 1017 30.03 846 24.98 2.6 36.7 93 1.7 35 2.97 0.117
22:00 1017 30.03 846 24.98 2.6 36.8 93 1.7 35 2.976 0.117
22:01 1017 30.03 846 24.98 2.6 36.7 93 1.7 35 2.976 0.117
22:02 1017 30.03 846 24.98 2.6 36.7 94 1.7 35 2.948 0.116
22:03 1017 30.03 846 24.98 2.6 36.6 94 1.7 35 2.931 0.115
22:04 1017 30.03 846 24.98 2.6 36.6 94 1.7 35 2.873 0.113
22:05 1017 30.03 846 24.98 2.5 36.5 94 1.6 34.9 2.856 0.112
22:06 1017 30.03 846 24.98 2.5 36.5 94 1.6 34.9 2.845 0.112
22:07 1017 30.03 846 24.98 2.5 36.4 94 1.5 34.8 2.828 0.111
22:08 1017 30.03 847 25.01 2.4 36.4 94 1.6 34.8 2.772 0.109
22:09 1017 30.03 846 24.98 2.4 36.3 94 1.5 34.7 2.766 0.109
22:10 1017 30.03 846 24.98 2.3 36.2 94 1.4 34.6 2.732 0.108
22:11 1017 30.03 847 25.01 2.3 36.2 94 1.4 34.6 2.721 0.107
22:12 1017 30.03 847 25.01 2.3 36.2 94 1.4 34.6 2.687 0.106
22:13 1017 30.03 847 25.01 2.3 36.1 94 1.4 34.5 2.648 0.104
22:14 1017 30.03 847 25.01 2.3 36.1 94 1.3 34.4 2.665 0.105
22:15 1017 30.03 847 25.01 2.3 36.1 94 1.4 34.5 2.625 0.103
22:16 1017 30.03 847 25.01 2.3 36.1 94 1.4 34.5 2.635 0.104
22:17 1017 30.03 847 25.01 2.3 36.1 94 1.4 34.6 2.635 0.104
22:18 1017 30.03 847 25.01 2.3 36.1 94 1.4 34.6 2.68 0.106
22:19 1017 30.03 847 25.01 2.3 36.1 94 1.5 34.6 2.63 0.104
22:20 1017 30.03 847 25.01 2.3 36.1 95 1.5 34.6 2.709 0.107
22:21 1017 30.03 847 25.01 2.3 36.1 94 1.4 34.6 2.63 0.104
22:22 1017 30.03 847 25.01 2.2 36 94 1.4 34.6 2.636 0.104
22:23 1017 30.03 847 25.01 2.2 36 95 1.4 34.6 2.591 0.102
22:24 1017 30.03 847 25.01 2.2 36 94 1.4 34.5 2.624 0.103
22:25 1017 30.03 847 25.01 2.2 36 94 1.3 34.3 2.584 0.102
22:26 1017 30.03 847 25.01 2.2 35.9 94 1.2 34.2 2.521 0.099
22:27 1017 30.03 847 25.01 2.2 35.9 94 1.3 34.3 2.539 0.1
22:28 1017 30.03 847 25.01 2.2 36 94 1.3 34.3 2.511 0.099
22:29 1017 30.03 847 25.01 2.2 35.9 94 1.3 34.3 2.539 0.1
22:30 1017 30.03 847 25.01 2.2 35.9 94 1.3 34.4 2.568 0.101
22:31 1017 30.03 847 25.01 2.2 35.9 94 1.3 34.4 2.556 0.101
22:32 1017 30.03 847 25.01 2.2 35.9 94 1.3 34.4 2.573 0.101
22:33 1017 30.03 847 25.01 2.2 35.9 94 1.3 34.4 2.551 0.1
22:34 1017 30.03 847 25.01 2.2 35.9 94 1.3 34.3 2.5 0.098
22:35 1017 30.03 847 25.01 2.2 35.9 94 1.3 34.4 2.5 0.098
22:36 1017 30.03 847 25.01 2.2 35.9 94 1.3 34.4 2.523 0.099
22:37 1017 30.03 847 25.01 2.1 35.9 94 1.2 34.2 2.517 0.099
22:38 1017 30.03 847 25.01 2.1 35.9 93 1.2 34.1 2.483 0.098
22:39 1017 30.03 847 25.01 2.2 35.9 93 1.2 34.2 2.467 0.097
22:40 1017 30.03 847 25.01 2.1 35.8 94 1.2 34.1 2.472 0.097
22:41 1017 30.03 847 25.01 2.1 35.8 94 1.2 34.2 2.489 0.098
22:42 1017 30.03 847 25.01 2.1 35.8 94 1.2 34.1 2.489 0.098
22:43 1017 30.03 847 25.01 2.1 35.8 93 1.1 34 2.41 0.095
22:44 1017 30.03 847 25.01 2.1 35.8 93 1.2 34.1 2.427 0.096
22:45 1017 30.03 847 25.01 2.1 35.9 94 1.2 34.2 2.456 0.097
22:46 1017 30.03 847 25.01 2.1 35.8 93 1.1 34 2.456 0.097
22:47 1017 30.03 847 25.01 2.1 35.8 93 1 33.9 2.405 0.095
22:48 1017 30.03 847 25.01 2.1 35.8 92 1 33.7 2.382 0.094
22:49 1017 30.03 847 25.01 2 35.7 92 0.9 33.7 2.354 0.093
22:50 1017 30.03 847 25.01 2 35.7 93 1 33.7 2.382 0.094
22:51 1017 30.03 847 25.01 2 35.6 92 0.9 33.7 2.382 0.094
22:52 1017 30.03 847 25.01 2 35.6 92 0.8 33.5 2.36 0.093
22:53 1017 30.03 847 25.01 2 35.6 92 0.9 33.6 2.348 0.092
22:54 1017 30.03 847 25.01 2 35.7 92 0.9 33.7 2.377 0.094
22:55 1017 30.03 847 25.01 2 35.6 92 0.9 33.6 2.382 0.094
22:56 1017 30.03 847 25.01 2 35.6 92 0.8 33.5 2.382 0.094
22:57 1017 30.03 847 25.01 2 35.6 92 0.9 33.5 2.354 0.093
22:58 1017 30.03 846 24.98 2 35.7 92 0.9 33.6 2.365 0.093
22:59 1017 30.03 846 24.98 2 35.7 92 0.9 33.6 2.405 0.095
23:00 1017 30.03 847 25.01 2 35.6 92 0.8 33.5 2.399 0.094
23:01 1017 30.03 847 25.01 2 35.6 92 0.9 33.6 2.388 0.094
23:02 1017 30.03 847 25.01 2 35.7 93 1 33.8 2.416 0.095
23:03 1017 30.03 846 24.98 2.1 35.7 93 1 33.8 2.422 0.095
23:04 1017 30.03 846 24.98 2 35.7 93 1 33.8 2.422 0.095
23:05 1017 30.03 846 24.98 2 35.6 93 0.9 33.7 2.388 0.094
23:06 1017 30.03 846 24.98 2 35.6 92 0.9 33.5 2.388 0.094
23:07 1017 30.03 846 24.98 2.1 35.7 92 1 33.7 2.399 0.094
23:08 1017 30.03 846 24.98 2 35.6 93 1 33.8 2.371 0.093
23:09 1017 30.03 846 24.98 2 35.6 93 1.1 33.9 2.377 0.094
23:10 1017 30.03 846 24.98 2 35.6 93 1 33.9 2.394 0.094
23:11 1017 30.03 846 24.98 2 35.6 93 1 33.7 2.343 0.092
23:12 1017 30.03 846 24.98 1.9 35.5 93 0.8 33.5 2.32 0.091
23:13 1017 30.03 846 24.98 1.9 35.5 92 0.8 33.5 2.275 0.09
23:14 1017 30.03 846 24.98 1.9 35.5 93 0.9 33.6 2.315 0.091
23:15 1017 30.03 846 24.98 1.9 35.5 93 1 33.7 2.32 0.091
23:16 1017 30.03 846 24.98 1.9 35.5 93 0.9 33.7 2.315 0.091
23:17 1017 30.03 846 24.98 1.9 35.5 93 0.9 33.6 2.326 0.092
23:18 1017 30.03 846 24.98 1.9 35.5 93 0.9 33.6 2.332 0.092
23:19 1017 30.03 846 24.98 1.9 35.5 93 0.9 33.6 2.281 0.09
23:20 1017 30.03 846 24.98 1.9 35.5 93 0.9 33.7 2.292 0.09
23:21 1017 30.03 846 24.98 1.9 35.5 93 0.9 33.7 2.32 0.091
23:22 1017 30.03 846 24.98 1.9 35.5 93 0.9 33.6 2.298 0.09
23:23 1017 30.03 846 24.98 2 35.5 93 0.9 33.6 2.337 0.092
23:24 1017 30.03 846 24.98 1.9 35.5 93 0.9 33.6 2.275 0.09
23:25 1017 30.03 846 24.98 1.9 35.5 93 0.9 33.6 2.309 0.091
23:26 1017 30.03 846 24.98 1.9 35.5 93 0.9 33.6 2.32 0.091
23:27 1017 30.03 846 24.98 2 35.6 93 1 33.7 2.309 0.091
23:28 1017 30.03 846 24.98 2 35.6 93 1 33.8 2.32 0.091
23:29 1017 30.03 846 24.98 2 35.6 93 1 33.8 2.354 0.093
23:30 1017 30.03 846 24.98 2 35.5 93 1 33.8 2.32 0.091
23:31 1017 30.03 846 24.98 2 35.5 93 1 33.8 2.354 0.093
23:32 1017 30.03 846 24.98 2 35.6 93 1 33.8 2.349 0.092
23:33 1017 30.03 846 24.98 2 35.6 94 1.1 33.9 2.388 0.094
23:34 1017 30.03 846 24.98 2 35.6 94 1.1 33.9 2.388 0.094
23:35 1017 30.03 846 24.98 2 35.6 94 1.1 34 2.411 0.095
23:36 1017 30.03 846 24.98 2 35.6 94 1.2 34.1 2.416 0.095
23:37 1017 30.03 846 24.98 2 35.7 94 1.2 34.1 2.422 0.095
23:38 1017 30.03 846 24.98 2 35.7 94 1.2 34.1 2.433 0.096
23:39 1017 30.03 846 24.98 2 35.7 94 1.2 34.2 2.433 0.096
23:40 1017 30.03 846 24.98 2.1 35.7 94 1.3 34.3 2.439 0.096
23:41 1017 30.03 846 24.98 2 35.7 94 1.2 34.1 2.445 0.096
23:42 1017 30.03 846 24.98 2 35.7 94 1.2 34.1 2.439 0.096
23:43 1017 30.03 846 24.98 2 35.7 94 1.1 34 2.422 0.095
23:44 1017 30.03 846 24.98 2 35.6 94 1.1 34 2.366 0.093
23:45 1017 30.03 846 24.98 2 35.6 94 1.1 34 2.388 0.094
23:46 1017 30.03 846 24.98 2 35.6 94 1.1 34 2.405 0.095
23:47 1017 30.03 846 24.98 2 35.6 94 1.1 34 2.4 0.094
23:48 1017 30.03 846 24.98 2 35.6 94 1.2 34.1 2.4 0.094
23:49 1017 30.03 846 24.98 2 35.6 94 1.1 34.1 2.371 0.093
23:50 1017 30.03 846 24.98 2 35.6 94 1.2 34.1 2.354 0.093
23:51 1017 30.03 846 24.98 2 35.6 94 1.1 34.1 2.377 0.094
23:52 1017 30.03 846 24.98 2 35.6 94 1.2 34.2 2.383 0.094
23:53 1017 30.03 846 24.98 2 35.6 94 1.1 34.1 2.4 0.094
23:54 1017 30.03 846 24.98 2 35.6 94 1.1 34 2.36 0.093
23:55 1017 30.03 846 24.98 2 35.6 94 1.1 33.9 2.36 0.093
23:56 1017 30.03 846 24.98 1.9 35.5 94 1 33.8 2.298 0.09
23:57 1017 30.03 846 24.98 1.9 35.5 93 0.9 33.7 2.269 0.089
23:58 1017 30.03 846 24.98 1.9 35.4 94 1 33.7 2.258 0.089
23:59 1017 30.03 846 24.98 1.9 35.5 94 1 33.9 2.281 0.09
24:00 1017 30.03 846 24.98 1.9 35.4 94 1 33.8 2.275 0.09